BA113 / G-VIIC 7700 Squawk Report (14th of September, 2020)

Aircraft B772 Reg No. G-VIIC Age 23 years old
Model 777 Jet engines 2 First flight 08-01-97
Registered 06-02-97 Rollout N/A Delivered 06-02-97
Construction No. 27485 Line No. 0053 Series 236(ER)
ADSHEX 4005BB Airline name British Airways Owner N/A
Airfield based Gatwick~Surrey~G First tracked N/A

Flight history for G-VIIC

Route Flight No Date Playback
Heathrow (LHR) - John F Kennedy Intl (JFK) BA113 2020-09-14 20:11:00
???? N/A 2020-09-08 22:30:00
Gatwick (LGW) - Cardiff (CWL) BA2272 2020-06-25 13:22:00
???? N/A 2020-06-24 07:36:00
Heathrow (LHR) - Gatwick (LGW) BA9172 2020-05-28 13:26:00
???? N/A 2020-05-25 07:50:00
???? N/A 2020-05-15 16:27:00
???? N/A 2020-05-14 07:29:00
???? N/A 2020-05-04 10:53:00
???? N/A 2020-05-01 14:44:00
???? N/A 2020-04-22 13:45:00
Chicago Ohare Intl (ORD) - Heathrow (LHR) BA294 2020-04-10 09:25:00
Heathrow (LHR) - Chicago Ohare Intl (ORD) BA295 2020-04-09 21:56:00
???? N/A 2020-04-08 16:40:00
Chicago Ohare Intl (ORD) - Heathrow (LHR) BA294 2020-04-04 07:02:00
Heathrow (LHR) - Chicago Ohare Intl (ORD) BA297 2020-04-02 23:33:00
Ben Gurion (TLV) - Heathrow (LHR) BA164 2020-03-24 20:22:00
Heathrow (LHR) - Ben Gurion (TLV) BA165 2020-03-24 13:51:00
Logan International Airport (BOS) - Heathrow (LHR) BA214 2020-03-19 12:58:00
Heathrow (LHR) - Logan International Airport (BOS) BA215 2020-03-19 00:51:00
Time Lat Lon Altitude Heading Speed Vertical Rate
2020-09-14 15:54:04 GMT 51.472252 -0.475233 0 255 0 0
2020-09-14 15:53:53 GMT 51.472252 -0.475196 0 255 3 0
2020-09-14 15:53:43 GMT 51.472252 -0.474987 0 255 4 0
2020-09-14 15:53:33 GMT 51.472252 -0.474739 0 255 4 0
2020-09-14 15:53:23 GMT 51.472252 -0.474415 0 255 6 0
2020-09-14 15:53:13 GMT 51.472252 -0.473995 0 255 7 0
2020-09-14 15:52:56 GMT 51.472630 -0.473544 0 180 10 0
2020-09-14 15:52:51 GMT 51.472847 -0.473544 0 180 12 0
2020-09-14 15:52:40 GMT 51.473427 -0.473537 0 180 13 0
2020-09-14 15:52:30 GMT 51.474056 -0.473557 0 180 13 0
2020-09-14 15:52:17 GMT 51.474777 -0.473576 0 180 11 0
2020-09-14 15:52:09 GMT 51.475159 -0.473576 0 177 10 0
2020-09-14 15:51:59 GMT 51.475590 -0.473576 0 194 11 0
2020-09-14 15:51:48 GMT 51.475834 -0.472832 0 270 14 0
2020-09-14 15:51:39 GMT 51.475834 -0.471855 0 270 17 0
2020-09-14 15:51:29 GMT 51.475834 -0.470593 0 270 18 0
2020-09-14 15:51:19 GMT 51.475845 -0.469227 0 267 19 0
2020-09-14 15:51:09 GMT 51.475925 -0.467903 0 270 19 0
2020-09-14 15:50:58 GMT 51.475937 -0.466474 0 270 18 0
2020-09-14 15:50:47 GMT 51.475937 -0.465082 0 270 17 0
2020-09-14 15:50:37 GMT 51.475948 -0.463801 0 270 17 0
2020-09-14 15:50:33 GMT 51.475952 -0.463181 0 270 18 0
2020-09-14 15:50:26 GMT 51.475952 -0.462475 0 270 18 0
2020-09-14 15:50:17 GMT 51.475960 -0.461314 0 270 17 0
2020-09-14 15:50:07 GMT 51.475960 -0.460108 0 270 17 0
2020-09-14 15:50:02 GMT 51.475964 -0.459480 0 270 16 0
2020-09-14 15:49:56 GMT 51.475964 -0.458794 0 270 15 0
2020-09-14 15:49:51 GMT 51.475971 -0.458271 0 270 15 0
2020-09-14 15:49:47 GMT 51.475971 -0.457844 0 270 14 0
2020-09-14 15:49:43 GMT 51.475964 -0.457439 0 270 14 0
2020-09-14 15:49:35 GMT 51.475971 -0.456712 0 270 12 0
2020-09-14 15:49:31 GMT 51.475971 -0.456378 0 270 12 0
2020-09-14 15:49:26 GMT 51.475971 -0.455970 0 270 11 0
2020-09-14 15:49:16 GMT 51.475975 -0.455151 0 270 10 0
2020-09-14 15:49:13 GMT 51.475971 -0.454930 0 270 10 0
2020-09-14 15:49:06 GMT 51.475983 -0.454448 0 270 10 0
2020-09-14 15:49:03 GMT 51.475975 -0.454216 0 270 9 0
2020-09-14 15:48:55 GMT 51.475986 -0.453796 0 270 8 0
2020-09-14 15:48:44 GMT 51.475983 -0.453260 0 275 6 0
2020-09-14 15:48:35 GMT 51.475986 -0.452976 0 275 3 0
2020-09-14 15:48:21 GMT 51.475983 -0.452815 0 275 0 0
2020-09-14 15:48:01 GMT 51.475986 -0.452824 0 275 0 0
2020-09-14 15:47:51 GMT 51.475983 -0.452815 0 275 0 0
2020-09-14 15:47:31 GMT 51.475986 -0.452824 0 180 0 0
2020-09-14 15:47:16 GMT 51.475983 -0.452815 0 275 0 0
2020-09-14 15:47:06 GMT 51.475986 -0.452824 0 275 0 0
2020-09-14 15:47:01 GMT 51.475983 -0.452815 0 275 0 0
2020-09-14 15:46:43 GMT 51.475986 -0.452824 0 275 0 0
2020-09-14 15:46:33 GMT 51.475983 -0.452741 0 275 5 0
2020-09-14 15:46:21 GMT 51.475971 -0.452184 0 255 10 0
2020-09-14 15:46:12 GMT 51.476200 -0.451757 0 180 11 0
2020-09-14 15:46:05 GMT 51.476650 -0.451756 0 180 14 0
2020-09-14 15:46:00 GMT 51.476906 -0.451756 0 177 15 0
2020-09-14 15:45:50 GMT 51.477512 -0.452137 0 115 16 0
2020-09-14 15:45:41 GMT 51.477615 -0.453281 0 90 30 0
2020-09-14 15:45:29 GMT 51.477604 -0.456715 0 90 59 0
2020-09-14 15:45:21 GMT 51.477596 -0.461036 0 90 88 0
2020-09-14 15:45:10 GMT 51.477585 -0.469072 -100 90 122 192
2020-09-14 15:45:00 GMT 51.477512 -0.479202 -150 90 155 896
2020-09-14 15:44:52 GMT 51.477512 -0.488739 -25 90 153 -768
2020-09-14 15:44:47 GMT 51.477512 -0.494385 50 89 153 -1152
2020-09-14 15:44:44 GMT 51.477467 -0.497742 100 89 153 -576
2020-09-14 15:44:41 GMT 51.477448 -0.501808 150 89 154 -1024
2020-09-14 15:44:38 GMT 51.477448 -0.504109 175 89 155 -832
2020-09-14 15:44:35 GMT 51.477448 -0.509677 225 89 156 -1088
2020-09-14 15:44:30 GMT 51.477402 -0.514056 275 89 158 -768
2020-09-14 15:44:27 GMT 51.477402 -0.517322 325 89 158 -768
2020-09-14 15:44:24 GMT 51.477371 -0.521393 400 89 159 -704
2020-09-14 15:44:21 GMT 51.477356 -0.524597 400 89 158 -640
2020-09-14 15:44:17 GMT 51.477325 -0.529175 450 89 157 -960
2020-09-14 15:44:13 GMT 51.477310 -0.533505 500 89 159 -704
2020-09-14 15:44:09 GMT 51.477310 -0.538182 525 90 157 -768
2020-09-14 15:44:06 GMT 51.477325 -0.541229 650 89 159 -768
2020-09-14 15:44:03 GMT 51.477280 -0.545273 650 89 158 -576
2020-09-14 15:44:00 GMT 51.477264 -0.549910 700 89 158 -960
2020-09-14 15:43:57 GMT 51.477264 -0.552360 725 89 158 -704
2020-09-14 15:43:54 GMT 51.477264 -0.556962 750 89 159 -896
2020-09-14 15:43:51 GMT 51.477234 -0.558929 825 89 159 -896
2020-09-14 15:43:48 GMT 51.477219 -0.563124 850 89 159 -1152
2020-09-14 15:43:45 GMT 51.477173 -0.570918 925 89 159 -768
2020-09-14 15:43:42 GMT 51.477173 -0.570918 975 89 159 -1024
2020-09-14 15:43:39 GMT 51.477139 -0.576935 1,025 89 159 -640
2020-09-14 15:43:36 GMT 51.477139 -0.581207 1,025 89 159 -448
2020-09-14 15:43:33 GMT 51.477139 -0.581207 1,050 89 159 -768
2020-09-14 15:43:29 GMT 51.477093 -0.588684 1,150 89 160 -896
2020-09-14 15:43:26 GMT 51.477093 -0.592499 1,175 89 160 -1024
2020-09-14 15:43:23 GMT 51.477093 -0.592499 1,200 90 160 -320
2020-09-14 15:43:20 GMT 51.477093 -0.596085 1,250 89 160 -896
2020-09-14 15:43:17 GMT 51.477081 -0.601205 1,300 89 161 -960
2020-09-14 15:43:14 GMT 51.477047 -0.603180 1,325 89 161 -704
2020-09-14 15:43:11 GMT 51.477036 -0.611597 1,425 89 161 -896
2020-09-14 15:43:08 GMT 51.477036 -0.611597 1,425 89 161 -896
2020-09-14 15:43:05 GMT 51.476997 -0.614471 1,475 89 161 -832
2020-09-14 15:43:02 GMT 51.476990 -0.617461 1,500 89 160 -896
2020-09-14 15:42:59 GMT 51.476952 -0.621796 1,550 89 159 -640
2020-09-14 15:42:56 GMT 51.476944 -0.624736 1,575 89 159 -704
2020-09-14 15:42:53 GMT 51.476898 -0.628225 1,725 89 159 -704
2020-09-14 15:42:50 GMT 51.476906 -0.631790 1,650 90 159 -704
2020-09-14 15:42:47 GMT 51.476898 -0.638692 1,700 90 159 -512
2020-09-14 15:42:44 GMT 51.476898 -0.638692 1,825 89 162 -1088
2020-09-14 15:42:38 GMT 51.476860 -0.645981 1,800 89 162 -1152
2020-09-14 15:42:35 GMT 51.476852 -0.649010 1,875 89 163 -768
2020-09-14 15:42:32 GMT 51.476814 -0.653229 1,900 89 164 -896
2020-09-14 15:42:29 GMT 51.476807 -0.656953 1,925 89 165 -832
2020-09-14 15:42:26 GMT 51.476761 -0.663782 2,025 89 165 -960
2020-09-14 15:42:23 GMT 51.476719 -0.667572 2,050 89 165 -832
2020-09-14 15:42:20 GMT 51.476719 -0.667572 2,100 89 164 -768
2020-09-14 15:42:17 GMT 51.476719 -0.672150 2,125 89 163 -768
2020-09-14 15:42:14 GMT 51.476673 -0.674438 2,150 89 161 -640
2020-09-14 15:42:11 GMT 51.476669 -0.678332 2,200 89 161 -960
2020-09-14 15:42:08 GMT 51.476673 -0.682068 2,225 89 163 -1024
2020-09-14 15:42:05 GMT 51.476627 -0.685272 2,250 89 166 -896
2020-09-14 15:42:02 GMT 51.476624 -0.690431 2,325 89 169 -1024
2020-09-14 15:41:59 GMT 51.476627 -0.693665 2,400 89 172 -960
2020-09-14 15:41:56 GMT 51.476578 -0.698003 2,425 89 173 -896
2020-09-14 15:41:53 GMT 51.476582 -0.701752 2,450 89 175 -1088
2020-09-14 15:41:50 GMT 51.476536 -0.705795 2,475 89 177 -768
2020-09-14 15:41:47 GMT 51.476532 -0.708989 2,550 89 180 -960
2020-09-14 15:41:44 GMT 51.476486 -0.716705 2,625 89 183 -1088
2020-09-14 15:41:41 GMT 51.476486 -0.716705 2,650 89 184 -1024
2020-09-14 15:41:38 GMT 51.476440 -0.720901 2,725 89 188 -1088
2020-09-14 15:41:35 GMT 51.476395 -0.726211 2,775 89 189 -832
2020-09-14 15:41:32 GMT 51.476395 -0.730743 2,800 89 190 -896
2020-09-14 15:41:29 GMT 51.476395 -0.732956 2,925 89 192 -1088
2020-09-14 15:41:26 GMT 51.476349 -0.742722 2,925 89 192 -1088
2020-09-14 15:41:22 GMT 51.476349 -0.742722 2,950 89 192 -1216
2020-09-14 15:41:19 GMT 51.476303 -0.747441 3,050 89 193 -960
2020-09-14 15:41:16 GMT 51.476299 -0.751801 3,050 89 194 -704
2020-09-14 15:41:13 GMT 51.476254 -0.756607 3,100 89 195 -896
2020-09-14 15:41:10 GMT 51.476208 -0.761795 3,175 89 198 -1088
2020-09-14 15:41:07 GMT 51.476166 -0.765554 3,200 89 199 -1408
2020-09-14 15:41:04 GMT 51.476120 -0.774091 3,300 89 200 -1280
2020-09-14 15:41:01 GMT 51.476120 -0.774091 3,325 89 200 -1152
2020-09-14 15:40:58 GMT 51.476116 -0.778732 3,350 89 201 -1408
2020-09-14 15:40:55 GMT 51.476074 -0.782702 3,425 89 202 -640
2020-09-14 15:40:52 GMT 51.476074 -0.787378 3,450 89 203 -448
2020-09-14 15:40:49 GMT 51.476028 -0.791981 3,525 89 208 -1216
2020-09-14 15:40:46 GMT 51.476021 -0.797272 3,550 89 209 -1088
2020-09-14 15:40:43 GMT 51.475983 -0.804971 3,675 89 216 -1216
2020-09-14 15:40:37 GMT 51.475891 -0.816477 3,900 89 221 -1152
2020-09-14 15:40:34 GMT 51.475891 -0.816477 3,850 89 227 -1344
2020-09-14 15:40:31 GMT 51.475834 -0.822449 3,900 89 227 -1344
2020-09-14 15:40:28 GMT 51.475834 -0.825882 4,075 89 230 -1088
2020-09-14 15:40:25 GMT 51.475788 -0.830917 4,025 89 230 -1216
2020-09-14 15:40:22 GMT 51.475754 -0.835926 4,075 89 230 -1408
2020-09-14 15:40:19 GMT 51.475697 -0.842133 4,175 89 230 -1408
2020-09-14 15:40:16 GMT 51.475651 -0.846100 4,225 89 230 -1216
2020-09-14 15:40:13 GMT 51.475616 -0.856043 4,325 89 230 -1472
2020-09-14 15:40:10 GMT 51.475571 -0.862427 4,375 89 230 -1344
2020-09-14 15:40:07 GMT 51.475571 -0.862427 4,425 89 230 -1280
2020-09-14 15:40:04 GMT 51.475571 -0.867846 4,475 89 230 -1408
2020-09-14 15:40:01 GMT 51.475555 -0.872040 4,575 89 231 -1344
2020-09-14 15:39:58 GMT 51.475479 -0.882024 4,625 89 231 -896
2020-09-14 15:39:55 GMT 51.475464 -0.887070 4,700 89 232 -1024
2020-09-14 15:39:52 GMT 51.475464 -0.887070 4,725 89 233 -768
2020-09-14 15:39:49 GMT 51.475433 -0.892862 4,750 89 233 -640
2020-09-14 15:39:46 GMT 51.475368 -0.899429 4,775 89 233 -704
2020-09-14 15:39:43 GMT 51.475323 -0.904083 4,825 89 233 64
2020-09-14 15:39:40 GMT 51.475296 -0.907411 4,825 89 233 -64
2020-09-14 15:39:37 GMT 51.475250 -0.912756 4,825 89 233 -64
2020-09-14 15:39:34 GMT 51.475185 -0.918045 4,825 89 233 0
2020-09-14 15:39:31 GMT 51.475113 -0.923074 4,825 89 233 0
2020-09-14 15:39:27 GMT 51.474998 -0.935287 4,825 89 234 64
2020-09-14 15:39:24 GMT 51.474998 -0.935287 4,825 89 235 128
2020-09-14 15:39:21 GMT 51.474930 -0.940519 4,825 89 235 192
2020-09-14 15:39:18 GMT 51.474930 -0.945938 4,800 89 239 64
2020-09-14 15:39:15 GMT 51.474903 -0.950623 4,800 89 250 -128
2020-09-14 15:39:12 GMT 51.474857 -0.956726 4,800 90 244 64
2020-09-14 15:39:09 GMT 51.474884 -0.962269 4,800 90 250 -128
2020-09-14 15:39:06 GMT 51.474884 -0.972439 4,800 89 251 -128
2020-09-14 15:39:03 GMT 51.474884 -0.972439 4,825 89 254 -64
2020-09-14 15:39:00 GMT 51.474857 -0.978546 4,825 89 254 -64
2020-09-14 15:38:57 GMT 51.474812 -0.986023 4,825 89 255 64
2020-09-14 15:38:54 GMT 51.474670 -0.995789 4,825 88 257 64
2020-09-14 15:38:51 GMT 51.474670 -0.995789 4,825 88 259 64
2020-09-14 15:38:48 GMT 51.474609 -1.001315 4,800 88 262 0
2020-09-14 15:38:45 GMT 51.474483 -1.007996 4,800 88 264 64
2020-09-14 15:38:42 GMT 51.474426 -1.013043 4,800 88 265 64
2020-09-14 15:38:39 GMT 51.474335 -1.020392 4,800 89 276 0
2020-09-14 15:38:36 GMT 51.474289 -1.025366 4,800 89 277 0
2020-09-14 15:38:33 GMT 51.474197 -1.037169 4,800 89 277 0
2020-09-14 15:38:27 GMT 51.474197 -1.043478 4,800 89 281 -64
2020-09-14 15:38:24 GMT 51.474159 -1.049805 4,800 89 286 -256
2020-09-14 15:38:21 GMT 51.474159 -1.055984 4,825 89 287 -384
2020-09-14 15:38:17 GMT 51.474106 -1.065674 4,850 89 290 -576
2020-09-14 15:38:14 GMT 51.474068 -1.071091 4,900 89 291 -768
2020-09-14 15:38:11 GMT 51.474068 -1.077576 4,925 89 291 -1152
2020-09-14 15:38:08 GMT 51.473969 -1.084974 5,000 89 292 -1344
2020-09-14 15:38:05 GMT 51.473927 -1.091080 5,075 88 292 -1216
2020-09-14 15:38:02 GMT 51.473740 -1.103821 5,125 88 292 -1216
2020-09-14 15:37:59 GMT 51.473740 -1.103821 5,175 88 292 -1216
2020-09-14 15:37:55 GMT 51.473648 -1.112291 5,250 88 292 -1344
2020-09-14 15:37:52 GMT 51.473511 -1.118750 5,300 88 292 -1408
2020-09-14 15:37:49 GMT 51.473461 -1.124268 5,425 93 290 -832
2020-09-14 15:37:46 GMT 51.473370 -1.131439 5,500 89 291 -1280
2020-09-14 15:37:43 GMT 51.473320 -1.137390 5,625 93 290 -832
2020-09-14 15:37:40 GMT 51.473320 -1.146011 5,575 90 291 -1088
2020-09-14 15:37:37 GMT 51.473373 -1.149407 5,625 92 291 -960
2020-09-14 15:37:34 GMT 51.473602 -1.157276 5,650 93 290 -896
2020-09-14 15:37:31 GMT 51.474289 -1.169376 5,750 98 290 -960
2020-09-14 15:37:25 GMT 51.475136 -1.177444 5,800 101 288 -704
2020-09-14 15:37:22 GMT 51.475883 -1.183548 5,975 101 283 -1664
2020-09-14 15:37:19 GMT 51.476807 -1.190606 6,650 101 287 -576
2020-09-14 15:37:16 GMT 51.477467 -1.195526 5,900 101 285 -832
2020-09-14 15:37:13 GMT 51.478180 -1.200999 5,950 101 285 -1088
2020-09-14 15:37:10 GMT 51.479839 -1.214066 6,025 101 284 -1600
2020-09-14 15:37:04 GMT 51.480789 -1.221338 6,200 101 283 -1792
2020-09-14 15:37:01 GMT 51.482208 -1.232028 6,650 101 282 -1024
2020-09-14 15:36:58 GMT 51.482208 -1.232028 6,325 101 283 -1728
2020-09-14 15:36:55 GMT 51.483192 -1.239700 6,500 101 281 -1664
2020-09-14 15:36:52 GMT 51.483902 -1.245092 6,475 101 282 -1664
2020-09-14 15:36:49 GMT 51.484634 -1.250687 7,075 101 290 -576
2020-09-14 15:36:46 GMT 51.485229 -1.255114 6,625 101 281 -1344
2020-09-14 15:36:43 GMT 51.486172 -1.262436 6,675 101 281 -1216
2020-09-14 15:36:40 GMT 51.487801 -1.274643 6,775 101 282 -1088
2020-09-14 15:36:37 GMT 51.487801 -1.274643 6,800 101 282 -1024
2020-09-14 15:36:34 GMT 51.488686 -1.281586 6,850 101 283 -1088
2020-09-14 15:36:31 GMT 51.489567 -1.288834 6,925 101 285 -896
2020-09-14 15:36:28 GMT 51.490406 -1.295395 6,950 101 312 -256
2020-09-14 15:36:25 GMT 51.490917 -1.299744 7,000 101 287 -768
2020-09-14 15:36:22 GMT 51.492500 -1.312637 7,050 101 290 -512
2020-09-14 15:36:19 GMT 51.492500 -1.312637 7,050 101 292 -576
2020-09-14 15:36:16 GMT 51.493195 -1.318211 7,075 101 295 -320
2020-09-14 15:36:13 GMT 51.494156 -1.325931 7,100 101 297 -128
2020-09-14 15:36:10 GMT 51.494690 -1.330338 7,100 101 299 -128
2020-09-14 15:36:07 GMT 51.496811 -1.347533 7,100 101 305 -128
2020-09-14 15:36:03 GMT 51.496811 -1.347533 7,100 101 308 -128
2020-09-14 15:36:00 GMT 51.497772 -1.355401 7,100 101 308 -128
2020-09-14 15:35:57 GMT 51.498367 -1.360003 7,125 101 311 -192
2020-09-14 15:35:54 GMT 51.499557 -1.369579 7,125 101 315 -384
2020-09-14 15:35:51 GMT 51.501205 -1.382793 7,150 101 319 -384
2020-09-14 15:35:48 GMT 51.501205 -1.382793 7,175 101 326 -640
2020-09-14 15:35:45 GMT 51.501812 -1.387787 7,200 101 324 -640
2020-09-14 15:35:42 GMT 51.502899 -1.396303 7,200 101 325 -640
2020-09-14 15:35:39 GMT 51.504044 -1.405285 7,475 101 330 -2112
2020-09-14 15:35:36 GMT 51.504593 -1.409739 7,300 101 329 -1280
2020-09-14 15:35:33 GMT 51.505489 -1.417007 7,325 101 329 -1728
2020-09-14 15:35:30 GMT 51.506374 -1.424103 7,450 101 329 -1920
2020-09-14 15:35:27 GMT 51.507305 -1.431503 7,600 101 330 -1984
2020-09-14 15:35:24 GMT 51.508026 -1.437279 7,925 101 330 -2048
2020-09-14 15:35:21 GMT 51.509079 -1.445741 7,800 101 330 -1920
2020-09-14 15:35:18 GMT 51.510086 -1.453536 7,950 101 331 -1984
2020-09-14 15:35:15 GMT 51.510841 -1.459961 7,950 101 331 -1920
2020-09-14 15:35:11 GMT 51.512192 -1.470718 8,125 100 333 -1792
2020-09-14 15:35:08 GMT 51.512878 -1.476622 8,225 100 333 -1792
2020-09-14 15:35:05 GMT 51.513702 -1.483451 8,300 100 337 -1536
2020-09-14 15:35:02 GMT 51.514755 -1.492136 8,400 100 334 -1600
2020-09-14 15:34:59 GMT 51.515533 -1.498446 8,425 100 335 -1536
2020-09-14 15:34:56 GMT 51.516357 -1.505498 8,525 100 335 -1600
2020-09-14 15:34:53 GMT 51.517220 -1.512985 8,600 100 336 -1536
2020-09-14 15:34:50 GMT 51.519081 -1.528854 8,700 100 337 -1472
2020-09-14 15:34:47 GMT 51.519081 -1.528854 8,750 100 339 -1536
2020-09-14 15:34:44 GMT 51.519875 -1.535339 8,850 100 340 -1472
2020-09-14 15:34:41 GMT 51.521038 -1.545105 8,925 101 340 -1472
2020-09-14 15:34:38 GMT 51.521759 -1.551077 8,975 100 341 -1472
2020-09-14 15:34:35 GMT 51.522537 -1.557386 9,050 101 341 -1472
2020-09-14 15:34:32 GMT 51.523407 -1.564735 9,100 101 341 -1408
2020-09-14 15:34:29 GMT 51.524551 -1.573792 9,225 101 342 -1536
2020-09-14 15:34:26 GMT 51.526566 -1.589900 9,275 101 342 -1536
2020-09-14 15:34:20 GMT 51.527298 -1.595764 9,425 101 342 -1472
2020-09-14 15:34:17 GMT 51.528534 -1.605563 9,525 101 342 -1408
2020-09-14 15:34:14 GMT 51.529266 -1.611576 9,575 101 342 -1216
2020-09-14 15:34:11 GMT 51.530045 -1.617588 9,625 101 343 -1152
2020-09-14 15:34:08 GMT 51.530869 -1.624269 9,725 101 343 -1152
2020-09-14 15:34:05 GMT 51.531830 -1.631767 9,700 101 343 -1152
2020-09-14 15:34:02 GMT 51.532928 -1.640600 9,825 101 343 -960
2020-09-14 15:33:59 GMT 51.534630 -1.654053 9,850 101 343 -896
2020-09-14 15:33:56 GMT 51.536026 -1.665115 9,875 101 343 -768
2020-09-14 15:33:53 GMT 51.536865 -1.671555 9,925 101 343 -640
2020-09-14 15:33:50 GMT 51.536865 -1.671555 9,950 101 344 -448
2020-09-14 15:33:47 GMT 51.537750 -1.678543 9,975 101 343 -448
2020-09-14 15:33:44 GMT 51.538559 -1.685065 10,000 101 344 -256
2020-09-14 15:33:41 GMT 51.539429 -1.691746 10,000 101 344 0
2020-09-14 15:33:38 GMT 51.540619 -1.700728 10,000 101 344 0
2020-09-14 15:33:35 GMT 51.541569 -1.708298 10,000 101 344 0
2020-09-14 15:33:32 GMT 51.542500 -1.715469 10,000 101 344 64
2020-09-14 15:33:29 GMT 51.543476 -1.722946 10,000 101 344 64
2020-09-14 15:33:25 GMT 51.544685 -1.732254 10,000 101 345 -64
2020-09-14 15:33:22 GMT 51.545757 -1.740494 10,000 101 345 -64
2020-09-14 15:33:19 GMT 51.546616 -1.747272 10,000 101 345 -64
2020-09-14 15:33:16 GMT 51.547897 -1.757144 10,000 101 345 64
2020-09-14 15:33:13 GMT 51.549622 -1.770325 10,000 101 345 64
2020-09-14 15:33:07 GMT 51.550415 -1.776370 10,000 101 345 0
2020-09-14 15:33:04 GMT 51.551422 -1.784091 10,000 101 345 -64
2020-09-14 15:33:01 GMT 51.552933 -1.795745 10,000 101 345 -64
2020-09-14 15:32:58 GMT 51.553623 -1.800766 10,000 102 345 0
2020-09-14 15:32:55 GMT 51.554398 -1.806657 10,000 101 346 0
2020-09-14 15:32:52 GMT 51.555347 -1.814194 10,000 101 345 0
2020-09-14 15:32:49 GMT 51.556686 -1.824324 10,000 102 345 0
2020-09-14 15:32:46 GMT 51.557693 -1.831896 10,000 101 346 0
2020-09-14 15:32:43 GMT 51.558563 -1.838428 10,000 101 346 -64
2020-09-14 15:32:40 GMT 51.559536 -1.845627 10,000 101 346 64
2020-09-14 15:32:37 GMT 51.560394 -1.852384 10,000 101 346 64
2020-09-14 15:32:34 GMT 51.561356 -1.859659 10,000 101 347 -64
2020-09-14 15:32:31 GMT 51.562469 -1.867905 10,000 101 351 0
2020-09-14 15:32:28 GMT 51.563725 -1.877594 10,000 101 346 128
2020-09-14 15:32:25 GMT 51.564331 -1.881928 10,000 101 348 -64
2020-09-14 15:32:22 GMT 51.566528 -1.898705 10,000 101 348 0
2020-09-14 15:32:19 GMT 51.566528 -1.898705 10,000 102 349 0
2020-09-14 15:32:16 GMT 51.567398 -1.905386 10,000 102 349 -64
2020-09-14 15:32:13 GMT 51.568451 -1.913106 10,000 102 349 0
2020-09-14 15:32:10 GMT 51.569366 -1.920232 10,000 102 349 0
2020-09-14 15:32:07 GMT 51.570755 -1.930466 10,000 102 349 64
2020-09-14 15:32:04 GMT 51.571499 -1.936035 10,000 101 351 0
2020-09-14 15:32:01 GMT 51.572708 -1.944962 10,000 102 349 -64
2020-09-14 15:31:58 GMT 51.573898 -1.953933 10,000 102 349 0
2020-09-14 15:31:55 GMT 51.574574 -1.959000 10,000 102 350 -64
2020-09-14 15:31:52 GMT 51.575912 -1.969225 10,000 101 351 64
2020-09-14 15:31:49 GMT 51.576572 -1.974258 10,000 102 350 0
2020-09-14 15:31:46 GMT 51.577457 -1.980972 10,000 101 351 -64
2020-09-14 15:31:43 GMT 51.578842 -1.991569 10,000 101 351 0
2020-09-14 15:31:40 GMT 51.579601 -1.997375 10,000 101 351 0
2020-09-14 15:31:37 GMT 51.580627 -2.004931 10,000 101 352 -64
2020-09-14 15:31:34 GMT 51.581696 -2.013016 10,000 101 352 0
2020-09-14 15:31:31 GMT 51.582413 -2.018664 10,000 101 352 0
2020-09-14 15:31:28 GMT 51.583557 -2.027435 10,000 101 352 0
2020-09-14 15:31:25 GMT 51.585800 -2.044348 10,000 101 352 64
2020-09-14 15:31:22 GMT 51.585800 -2.044348 10,000 101 352 0
2020-09-14 15:31:18 GMT 51.587234 -2.054977 10,000 101 351 0
2020-09-14 15:31:15 GMT 51.587906 -2.060085 10,000 101 351 -64
2020-09-14 15:31:12 GMT 51.589050 -2.068844 10,000 101 351 -64
2020-09-14 15:31:09 GMT 51.589935 -2.075500 10,000 101 351 64
2020-09-14 15:31:06 GMT 51.591019 -2.083617 10,000 101 351 -64
2020-09-14 15:31:03 GMT 51.592072 -2.091559 10,000 102 351 64
2020-09-14 15:31:00 GMT 51.593006 -2.098541 10,000 102 351 64
2020-09-14 15:30:57 GMT 51.594315 -2.108410 10,000 101 351 -64
2020-09-14 15:30:54 GMT 51.595428 -2.116547 10,000 102 350 0
2020-09-14 15:30:51 GMT 51.596081 -2.121735 10,000 102 350 0
2020-09-14 15:30:48 GMT 51.597290 -2.130902 10,000 102 350 -64
2020-09-14 15:30:45 GMT 51.598362 -2.138596 10,000 102 350 64
2020-09-14 15:30:42 GMT 51.599571 -2.147903 10,000 102 349 0
2020-09-14 15:30:39 GMT 51.600403 -2.154211 10,000 102 349 0
2020-09-14 15:30:36 GMT 51.601135 -2.159407 10,000 102 349 64
2020-09-14 15:30:33 GMT 51.602364 -2.168579 10,000 102 349 64
2020-09-14 15:30:30 GMT 51.603287 -2.175738 10,000 102 349 0
2020-09-14 15:30:27 GMT 51.605251 -2.190399 10,000 102 348 -64
2020-09-14 15:30:21 GMT 51.607487 -2.207260 10,000 102 348 -64
2020-09-14 15:30:18 GMT 51.607487 -2.207260 10,000 101 348 64
2020-09-14 15:30:15 GMT 51.608002 -2.211295 10,000 101 348 0
2020-09-14 15:30:12 GMT 51.609329 -2.221465 10,000 101 348 0
2020-09-14 15:30:09 GMT 51.610371 -2.229156 10,000 101 348 0
2020-09-14 15:30:06 GMT 51.612305 -2.243883 10,000 101 348 -64
2020-09-14 15:30:03 GMT 51.612305 -2.243883 10,000 101 348 -64
2020-09-14 15:30:00 GMT 51.613449 -2.252494 10,000 102 348 -64
2020-09-14 15:29:57 GMT 51.614235 -2.258606 10,000 102 348 0
2020-09-14 15:29:54 GMT 51.615326 -2.266895 10,000 101 349 0
2020-09-14 15:29:51 GMT 51.616333 -2.274393 10,000 102 348 0
2020-09-14 15:29:48 GMT 51.618240 -2.288513 10,000 101 348 -64
2020-09-14 15:29:42 GMT 51.619354 -2.297134 10,000 101 348 64
2020-09-14 15:29:39 GMT 51.620544 -2.306312 10,000 101 348 64
2020-09-14 15:29:36 GMT 51.621414 -2.312771 10,000 101 349 64
2020-09-14 15:29:33 GMT 51.623360 -2.327652 10,000 101 349 64
2020-09-14 15:29:30 GMT 51.623360 -2.327652 10,000 101 349 0
2020-09-14 15:29:27 GMT 51.624290 -2.334747 10,000 101 349 64
2020-09-14 15:29:24 GMT 51.625221 -2.342072 10,000 101 350 0
2020-09-14 15:29:21 GMT 51.626385 -2.350845 10,000 101 350 0
2020-09-14 15:29:18 GMT 51.628296 -2.365417 10,000 101 351 0
2020-09-14 15:29:12 GMT 51.630478 -2.381806 10,000 101 351 0
2020-09-14 15:29:09 GMT 51.630478 -2.381806 10,000 102 352 0
2020-09-14 15:29:06 GMT 51.631302 -2.388190 10,000 102 352 0
2020-09-14 15:29:03 GMT 51.632343 -2.395859 10,000 102 352 -64
2020-09-14 15:29:00 GMT 51.633553 -2.404938 10,000 102 352 0
2020-09-14 15:28:57 GMT 51.635464 -2.418900 10,000 102 352 -64
2020-09-14 15:28:54 GMT 51.636566 -2.427014 10,000 102 352 0
2020-09-14 15:28:51 GMT 51.636566 -2.427014 10,000 101 352 -64
2020-09-14 15:28:48 GMT 51.637665 -2.435327 10,000 101 352 0
2020-09-14 15:28:45 GMT 51.638489 -2.441786 10,000 100 353 64
2020-09-14 15:28:42 GMT 51.639404 -2.449357 10,000 100 353 64
2020-09-14 15:28:39 GMT 51.640163 -2.456055 10,000 98 353 64
2020-09-14 15:28:36 GMT 51.640823 -2.463758 10,000 93 354 -64
2020-09-14 15:28:33 GMT 51.641418 -2.472963 10,000 95 354 0
2020-09-14 15:28:30 GMT 51.641560 -2.483749 10,000 47 362 64
2020-09-14 15:28:26 GMT 51.641281 -2.491224 10,000 81 357 -64
2020-09-14 15:28:23 GMT 51.640503 -2.501320 10,000 74 359 64
2020-09-14 15:28:20 GMT 51.639885 -2.506638 10,000 76 358 0
2020-09-14 15:28:17 GMT 51.638443 -2.515564 10,000 74 359 64
2020-09-14 15:28:14 GMT 51.636887 -2.523292 10,000 68 359 0
2020-09-14 15:28:11 GMT 51.634872 -2.531235 10,000 64 360 64
2020-09-14 15:28:07 GMT 51.629364 -2.547760 10,000 59 361 64
2020-09-14 15:28:04 GMT 51.629364 -2.547760 10,000 56 362 0
2020-09-14 15:28:00 GMT 51.624897 -2.558136 10,000 54 362 -64
2020-09-14 15:27:57 GMT 51.623032 -2.561951 10,000 51 362 -64
2020-09-14 15:27:54 GMT 51.616470 -2.574158 10,000 48 362 0
2020-09-14 15:27:48 GMT 51.612625 -2.581045 10,000 47 362 64
2020-09-14 15:27:45 GMT 51.609146 -2.587280 10,000 47 362 64
2020-09-14 15:27:42 GMT 51.605621 -2.593516 10,000 47 362 -64
2020-09-14 15:27:39 GMT 51.603157 -2.597885 10,000 47 362 -64
2020-09-14 15:27:36 GMT 51.599617 -2.604141 10,000 47 362 -64
2020-09-14 15:27:33 GMT 51.595615 -2.611313 10,000 47 362 64
2020-09-14 15:27:30 GMT 51.592804 -2.616305 10,000 47 362 64
2020-09-14 15:27:26 GMT 51.588211 -2.624435 10,000 48 361 0
2020-09-14 15:27:23 GMT 51.584812 -2.630539 10,000 48 361 -64
2020-09-14 15:27:20 GMT 51.581360 -2.636719 10,000 48 361 -64
2020-09-14 15:27:17 GMT 51.578018 -2.642657 10,000 48 361 -64
2020-09-14 15:27:14 GMT 51.574448 -2.649041 10,000 48 361 0
2020-09-14 15:27:11 GMT 51.571640 -2.654037 10,000 47 361 0
2020-09-14 15:27:08 GMT 51.568222 -2.660102 10,000 47 361 64
2020-09-14 15:27:05 GMT 51.564144 -2.667313 10,000 47 361 -64
2020-09-14 15:27:02 GMT 51.561630 -2.671830 10,000 47 361 -64
2020-09-14 15:26:59 GMT 51.557999 -2.678299 10,000 47 360 -64
2020-09-14 15:26:55 GMT 51.553665 -2.685935 10,000 47 360 -64
2020-09-14 15:26:52 GMT 51.550507 -2.691502 10,000 47 360 64
2020-09-14 15:26:49 GMT 51.546982 -2.697737 10,000 47 360 64
2020-09-14 15:26:46 GMT 51.544006 -2.703008 10,000 47 360 0
2020-09-14 15:26:43 GMT 51.540802 -2.708798 10,000 47 360 0
2020-09-14 15:26:40 GMT 51.535904 -2.717409 10,000 47 360 0
2020-09-14 15:26:37 GMT 51.532562 -2.723347 10,000 47 360 -64
2020-09-14 15:26:34 GMT 51.525879 -2.735138 10,000 47 359 0
2020-09-14 15:26:31 GMT 51.525879 -2.735138 10,000 47 359 0
2020-09-14 15:26:28 GMT 51.523598 -2.739105 10,000 47 359 0
2020-09-14 15:26:25 GMT 51.520061 -2.745438 10,000 47 359 64
2020-09-14 15:26:21 GMT 51.514149 -2.755814 10,000 47 359 0
2020-09-14 15:26:18 GMT 51.508621 -2.765437 10,000 47 358 0
2020-09-14 15:26:15 GMT 51.508621 -2.765437 10,000 47 358 0
2020-09-14 15:26:11 GMT 51.504135 -2.773306 10,000 47 359 -64
2020-09-14 15:26:08 GMT 51.501301 -2.778320 10,000 48 360 -64
2020-09-14 15:26:05 GMT 51.488525 -2.800920 10,000 47 358 64
2020-09-14 15:26:00 GMT 51.488525 -2.800920 10,000 47 359 64
2020-09-14 15:25:57 GMT 51.487335 -2.803040 10,000 48 359 0
2020-09-14 15:25:54 GMT 51.485611 -2.806168 10,000 48 360 64
2020-09-14 15:25:51 GMT 51.481979 -2.812729 10,000 49 360 -64
2020-09-14 15:25:48 GMT 51.478592 -2.818884 10,000 49 360 -64
2020-09-14 15:25:45 GMT 51.474472 -2.826530 10,000 50 359 0
2020-09-14 15:25:39 GMT 51.468758 -2.837677 10,000 52 359 0
2020-09-14 15:25:36 GMT 51.466198 -2.843094 10,000 53 358 0
2020-09-14 15:25:33 GMT 51.462849 -2.850647 10,000 55 357 0
2020-09-14 15:25:30 GMT 51.460922 -2.855258 10,000 56 356 -64
2020-09-14 15:25:27 GMT 51.457771 -2.862930 10,000 57 356 0
2020-09-14 15:25:24 GMT 51.455017 -2.869881 10,000 57 356 0
2020-09-14 15:25:21 GMT 51.451862 -2.877808 10,000 57 356 128
2020-09-14 15:25:18 GMT 51.450001 -2.882538 10,000 57 357 0
2020-09-14 15:25:15 GMT 51.446507 -2.891235 10,000 57 356 128
2020-09-14 15:25:12 GMT 51.444717 -2.895714 10,000 57 356 -128
2020-09-14 15:25:08 GMT 51.440826 -2.905438 10,000 58 355 -64
2020-09-14 15:25:04 GMT 51.437119 -2.914643 10,000 57 357 -64
2020-09-14 15:25:01 GMT 51.432037 -2.927560 10,000 57 356 64
2020-09-14 15:24:54 GMT 51.428585 -2.936249 10,000 57 355 64
2020-09-14 15:24:51 GMT 51.424953 -2.945557 10,000 57 355 0
2020-09-14 15:24:48 GMT 51.423294 -2.949606 10,000 57 355 0
2020-09-14 15:24:45 GMT 51.418530 -2.961578 10,000 57 355 -64
2020-09-14 15:24:38 GMT 51.414478 -2.971878 10,000 57 355 -64
2020-09-14 15:24:35 GMT 51.408428 -2.987366 10,000 58 355 64
2020-09-14 15:24:32 GMT 51.408428 -2.987366 10,000 58 355 0
2020-09-14 15:24:28 GMT 51.405262 -2.995453 10,000 58 355 0
2020-09-14 15:24:24 GMT 51.401917 -3.004093 10,000 58 354 0
2020-09-14 15:24:18 GMT 51.396698 -3.017454 10,000 58 354 64
2020-09-14 15:24:15 GMT 51.394554 -3.022919 10,000 57 354 0
2020-09-14 15:24:12 GMT 51.391937 -3.029554 10,000 57 354 64
2020-09-14 15:24:09 GMT 51.389282 -3.036309 10,000 57 354 -128
2020-09-14 15:24:05 GMT 51.385616 -3.045502 10,000 57 354 0
2020-09-14 15:24:01 GMT 51.382450 -3.053513 10,000 57 352 -64
2020-09-14 15:23:58 GMT 51.378937 -3.062291 10,000 57 354 64
2020-09-14 15:23:55 GMT 51.376820 -3.067780 10,000 57 354 0
2020-09-14 15:23:49 GMT 51.371384 -3.081368 10,000 57 353 0
2020-09-14 15:23:46 GMT 51.369049 -3.087232 10,000 57 353 0
2020-09-14 15:23:43 GMT 51.366066 -3.094788 10,000 57 353 0
2020-09-14 15:23:40 GMT 51.363647 -3.100891 10,000 57 352 0
2020-09-14 15:23:37 GMT 51.361176 -3.107201 10,000 57 352 -64
2020-09-14 15:23:34 GMT 51.358566 -3.113733 10,000 57 352 64
2020-09-14 15:23:31 GMT 51.353577 -3.126353 10,000 57 352 0
2020-09-14 15:23:28 GMT 51.353577 -3.126353 10,000 57 352 0
2020-09-14 15:23:25 GMT 51.350239 -3.134689 10,000 57 352 0
2020-09-14 15:23:22 GMT 51.347675 -3.141098 10,000 57 352 0
2020-09-14 15:23:18 GMT 51.344837 -3.148193 10,000 57 352 0
2020-09-14 15:23:15 GMT 51.341492 -3.156639 10,000 57 352 0
2020-09-14 15:23:12 GMT 51.339203 -3.162355 10,000 57 352 0
2020-09-14 15:23:08 GMT 51.336090 -3.170075 10,000 57 352 0
2020-09-14 15:23:05 GMT 51.333759 -3.175964 10,000 57 352 64
2020-09-14 15:23:02 GMT 51.330002 -3.185293 10,000 57 352 0
2020-09-14 15:22:59 GMT 51.326916 -3.193130 10,000 57 352 -64
2020-09-14 15:22:56 GMT 51.324692 -3.198580 10,000 57 353 0
2020-09-14 15:22:53 GMT 51.322960 -3.202972 10,000 57 353 64
2020-09-14 15:22:50 GMT 51.319473 -3.211719 10,000 57 353 64
2020-09-14 15:22:47 GMT 51.317230 -3.217287 10,000 57 353 0
2020-09-14 15:22:44 GMT 51.314941 -3.223003 10,000 57 352 0
2020-09-14 15:22:41 GMT 51.308762 -3.238369 10,000 57 352 0
2020-09-14 15:22:38 GMT 51.308762 -3.238369 10,000 57 352 -64
2020-09-14 15:22:35 GMT 51.306618 -3.243713 10,000 57 352 0
2020-09-14 15:22:32 GMT 51.304138 -3.249949 10,000 56 350 64
2020-09-14 15:22:29 GMT 51.301590 -3.256226 10,000 57 351 -64
2020-09-14 15:22:26 GMT 51.299423 -3.261678 10,000 57 350 0
2020-09-14 15:22:23 GMT 51.296425 -3.268967 10,000 57 351 0
2020-09-14 15:22:20 GMT 51.294159 -3.274668 10,000 56 350 0
2020-09-14 15:22:17 GMT 51.290543 -3.283502 10,000 56 350 0
2020-09-14 15:22:14 GMT 51.288322 -3.288879 10,000 67 350 -64
2020-09-14 15:22:11 GMT 51.285324 -3.296270 10,000 56 350 64
2020-09-14 15:22:08 GMT 51.282623 -3.302876 10,000 57 351 64
2020-09-14 15:22:05 GMT 51.280472 -3.308221 10,000 57 351 0
2020-09-14 15:22:02 GMT 51.277679 -3.315273 10,000 57 351 64
2020-09-14 15:21:59 GMT 51.275436 -3.321063 10,000 58 351 0
2020-09-14 15:21:56 GMT 51.270306 -3.335342 10,000 61 351 0
2020-09-14 15:21:53 GMT 51.270306 -3.335342 10,000 62 351 64
2020-09-14 15:21:50 GMT 51.268341 -3.341700 10,000 67 350 -64
2020-09-14 15:21:47 GMT 51.265915 -3.350904 10,000 71 349 -64
2020-09-14 15:21:44 GMT 51.264954 -3.355136 10,000 72 349 -64
2020-09-14 15:21:41 GMT 51.263416 -3.363342 10,000 74 348 0
2020-09-14 15:21:38 GMT 51.262253 -3.371318 10,000 79 346 64
2020-09-14 15:21:35 GMT 51.261463 -3.379288 10,000 84 345 64
2020-09-14 15:21:32 GMT 51.260880 -3.389579 10,000 87 345 64
2020-09-14 15:21:29 GMT 51.260788 -3.394998 10,000 89 345 0
2020-09-14 15:21:26 GMT 51.260925 -3.403089 10,000 94 344 0
2020-09-14 15:21:23 GMT 51.261230 -3.409271 10,000 96 343 64
2020-09-14 15:21:20 GMT 51.261841 -3.416971 10,000 101 343 64
2020-09-14 15:21:17 GMT 51.262581 -3.423920 10,000 101 344 0
2020-09-14 15:21:14 GMT 51.263489 -3.431075 10,000 102 343 -64
2020-09-14 15:21:11 GMT 51.264675 -3.439789 10,000 102 343 0
2020-09-14 15:21:08 GMT 51.265686 -3.447257 10,000 102 343 64
2020-09-14 15:21:04 GMT 51.266876 -3.455943 10,000 102 343 0
2020-09-14 15:21:00 GMT 51.268120 -3.465118 10,000 102 344 -64
2020-09-14 15:20:57 GMT 51.269703 -3.476791 10,000 102 344 0
2020-09-14 15:20:54 GMT 51.270260 -3.480606 10,000 102 344 0
2020-09-14 15:20:51 GMT 51.271454 -3.489421 10,000 102 344 -64
2020-09-14 15:20:48 GMT 51.272415 -3.496250 10,000 102 344 64
2020-09-14 15:20:45 GMT 51.274544 -3.511276 10,000 102 344 0
2020-09-14 15:20:42 GMT 51.275757 -3.519856 10,000 102 344 0
2020-09-14 15:20:39 GMT 51.275757 -3.519856 10,000 102 344 -64
2020-09-14 15:20:36 GMT 51.276451 -3.524704 10,000 102 347 64
2020-09-14 15:20:33 GMT 51.277451 -3.531808 10,000 102 344 64
2020-09-14 15:20:30 GMT 51.278828 -3.541641 10,000 102 345 64
2020-09-14 15:20:27 GMT 51.279877 -3.549178 10,000 102 345 -64
2020-09-14 15:20:24 GMT 51.280609 -3.554374 10,000 102 346 -64
2020-09-14 15:20:21 GMT 51.281944 -3.564072 10,000 102 346 -64
2020-09-14 15:20:18 GMT 51.282875 -3.570786 10,000 102 347 0
2020-09-14 15:20:15 GMT 51.284042 -3.579316 10,000 102 347 0
2020-09-14 15:20:12 GMT 51.286606 -3.597800 10,000 102 348 0
2020-09-14 15:20:08 GMT 51.286606 -3.597800 10,000 102 347 0
2020-09-14 15:20:03 GMT 51.287979 -3.607376 10,000 102 347 0
2020-09-14 15:20:00 GMT 51.289162 -3.615799 10,000 102 347 0
2020-09-14 15:19:57 GMT 51.289997 -3.621750 10,000 102 347 -64
2020-09-14 15:19:54 GMT 51.291367 -3.631575 10,000 102 347 64
2020-09-14 15:19:50 GMT 51.292652 -3.640747 10,000 102 348 0
2020-09-14 15:19:46 GMT 51.293839 -3.649243 10,000 102 348 64
2020-09-14 15:19:43 GMT 51.296284 -3.666611 10,000 102 348 0
2020-09-14 15:19:40 GMT 51.296284 -3.666611 10,000 102 348 0
2020-09-14 15:19:37 GMT 51.297169 -3.673019 10,000 102 348 0
2020-09-14 15:19:34 GMT 51.298462 -3.682276 10,000 102 348 0
2020-09-14 15:19:31 GMT 51.299122 -3.686905 10,000 102 348 -64
2020-09-14 15:19:27 GMT 51.301025 -3.700611 10,000 102 348 0
2020-09-14 15:19:24 GMT 51.301849 -3.706253 10,000 102 348 0
2020-09-14 15:19:21 GMT 51.302753 -3.712921 10,000 102 348 0
2020-09-14 15:19:17 GMT 51.304367 -3.724217 10,000 102 348 0
2020-09-14 15:19:11 GMT 51.306198 -3.736910 10,000 102 349 -64
2020-09-14 15:19:07 GMT 51.307735 -3.747711 10,000 102 348 0
2020-09-14 15:19:04 GMT 51.309082 -3.757027 10,000 102 349 -128
2020-09-14 15:19:01 GMT 51.309723 -3.761555 10,000 102 350 64
2020-09-14 15:18:57 GMT 51.311367 -3.773270 10,000 102 350 128
2020-09-14 15:18:54 GMT 51.313293 -3.787091 10,000 102 351 64
2020-09-14 15:18:51 GMT 51.314857 -3.798294 10,000 102 351 0
2020-09-14 15:18:47 GMT 51.314857 -3.798294 10,000 102 351 -64
2020-09-14 15:18:44 GMT 51.316956 -3.813666 10,000 102 352 0
2020-09-14 15:18:38 GMT 51.317825 -3.820050 10,000 102 351 0
2020-09-14 15:18:34 GMT 51.320389 -3.838831 10,000 102 351 64
2020-09-14 15:18:31 GMT 51.321377 -3.845825 10,000 102 350 64
2020-09-14 15:18:28 GMT 51.321377 -3.845825 10,000 102 351 -64
2020-09-14 15:18:25 GMT 51.322632 -3.854675 10,000 102 351 0
2020-09-14 15:18:22 GMT 51.323608 -3.861771 10,000 102 350 0
2020-09-14 15:18:18 GMT 51.325104 -3.872606 10,000 102 350 -64
2020-09-14 15:18:15 GMT 51.326218 -3.880310 10,000 102 350 64
2020-09-14 15:18:12 GMT 51.327209 -3.887750 10,000 102 350 -64
2020-09-14 15:18:09 GMT 51.328266 -3.895264 10,000 102 350 0
2020-09-14 15:18:06 GMT 51.329010 -3.900909 10,000 102 349 0
2020-09-14 15:18:01 GMT 51.332428 -3.925979 10,000 102 347 -64
2020-09-14 15:17:57 GMT 51.332428 -3.925979 10,000 102 349 64
2020-09-14 15:17:51 GMT 51.335861 -3.951738 10,000 102 348 64
2020-09-14 15:17:46 GMT 51.335861 -3.951738 10,000 102 348 64
2020-09-14 15:17:43 GMT 51.337250 -3.961945 10,000 102 347 64
2020-09-14 15:17:40 GMT 51.338085 -3.968353 10,000 102 347 -64
2020-09-14 15:17:37 GMT 51.338924 -3.974228 10,000 104 345 64
2020-09-14 15:17:34 GMT 51.340462 -3.985138 10,000 104 345 -64
2020-09-14 15:17:31 GMT 51.341438 -3.991470 10,000 104 345 -64
2020-09-14 15:17:26 GMT 51.343441 -4.003067 10,000 107 345 0
2020-09-14 15:17:23 GMT 51.344746 -4.009399 10,000 111 344 0
2020-09-14 15:17:20 GMT 51.346481 -4.016468 10,000 141 344 -64
2020-09-14 15:17:16 GMT 51.349182 -4.025673 10,000 118 343 64
2020-09-14 15:17:11 GMT 51.353451 -4.037094 10,000 124 343 64
2020-09-14 15:17:06 GMT 51.358337 -4.047497 10,000 130 343 64
2020-09-14 15:17:03 GMT 51.361313 -4.052916 10,000 135 343 0
2020-09-14 15:17:00 GMT 51.369698 -4.065170 10,000 141 344 0
2020-09-14 15:16:56 GMT 51.369698 -4.065170 10,000 143 345 -64
2020-09-14 15:16:53 GMT 51.373535 -4.069692 10,000 145 345 0
2020-09-14 15:16:50 GMT 51.377750 -4.074020 10,000 149 345 -128
2020-09-14 15:16:45 GMT 51.383614 -4.079056 10,000 155 345 128
2020-09-14 15:16:42 GMT 51.388504 -4.082489 10,000 161 344 0
2020-09-14 15:16:39 GMT 51.392460 -4.084854 10,000 161 344 0
2020-09-14 15:16:36 GMT 51.398117 -4.087508 10,000 166 344 -64
2020-09-14 15:16:33 GMT 51.402512 -4.089067 10,000 172 344 -64
2020-09-14 15:16:30 GMT 51.407272 -4.090255 10,000 174 344 -64
2020-09-14 15:16:26 GMT 51.414246 -4.091110 10,000 179 345 64
2020-09-14 15:16:22 GMT 51.420135 -4.091071 10,000 185 345 0
2020-09-14 15:16:19 GMT 51.424393 -4.090626 10,000 189 346 0
2020-09-14 15:16:16 GMT 51.429520 -4.089512 10,000 190 346 0
2020-09-14 15:16:13 GMT 51.439011 -4.085922 10,000 199 345 0
2020-09-14 15:16:10 GMT 51.439011 -4.085922 10,000 198 345 64
2020-09-14 15:16:05 GMT 51.445995 -4.081955 10,000 204 345 0
2020-09-14 15:16:02 GMT 51.450371 -4.078827 10,000 218 346 -64
2020-09-14 15:15:59 GMT 51.454330 -4.075557 10,000 209 345 -64
2020-09-14 15:15:55 GMT 51.460335 -4.069595 10,000 214 345 0
2020-09-14 15:15:52 GMT 51.467735 -4.060593 10,000 224 345 -64
2020-09-14 15:15:45 GMT 51.473042 -4.053116 10,000 224 345 0
2020-09-14 15:15:40 GMT 51.479095 -4.044008 10,000 224 345 0
2020-09-14 15:15:36 GMT 51.483238 -4.037781 10,000 224 345 0
2020-09-14 15:15:33 GMT 51.487148 -4.031906 10,000 224 345 0
2020-09-14 15:15:29 GMT 51.491428 -4.025497 10,000 224 345 -64
2020-09-14 15:15:26 GMT 51.498871 -4.014315 10,000 224 345 0
2020-09-14 15:15:23 GMT 51.498871 -4.014315 10,000 224 345 -64
2020-09-14 15:15:18 GMT 51.503906 -4.006669 10,000 227 345 64
2020-09-14 15:15:15 GMT 51.507385 -4.001325 10,000 226 345 -64
2020-09-14 15:15:12 GMT 51.510315 -3.996574 10,000 257 342 0
2020-09-14 15:15:08 GMT 51.514801 -3.989002 10,000 230 344 0
2020-09-14 15:15:04 GMT 51.519104 -3.980762 10,000 232 344 0
2020-09-14 15:15:01 GMT 51.521873 -3.974533 10,000 246 342 0
2020-09-14 15:14:58 GMT 51.524204 -3.968658 10,000 240 343 -64
2020-09-14 15:14:55 GMT 51.526951 -3.960419 10,000 247 342 0
2020-09-14 15:14:52 GMT 51.528717 -3.954262 10,000 248 342 0
2020-09-14 15:14:49 GMT 51.530960 -3.944686 10,000 254 342 64
2020-09-14 15:14:45 GMT 51.532608 -3.935184 10,000 259 342 -64
2020-09-14 15:14:42 GMT 51.533325 -3.929901 10,000 260 343 0
2020-09-14 15:14:38 GMT 51.534302 -3.919298 10,000 263 343 64
2020-09-14 15:14:34 GMT 51.534676 -3.910217 10,000 271 345 0
2020-09-14 15:14:31 GMT 51.534584 -3.901520 10,000 314 349 -64
2020-09-14 15:14:28 GMT 51.534210 -3.893688 10,000 277 345 -64
2020-09-14 15:14:25 GMT 51.532654 -3.878990 10,000 282 345 -64
2020-09-14 15:14:22 GMT 51.530811 -3.868561 10,000 287 346 -64
2020-09-14 15:14:18 GMT 51.530811 -3.868561 10,000 289 347 0
2020-09-14 15:14:14 GMT 51.528397 -3.858428 10,000 294 347 64
2020-09-14 15:14:11 GMT 51.525970 -3.850188 10,000 300 348 0
2020-09-14 15:14:07 GMT 51.524002 -3.844473 10,000 301 347 0
2020-09-14 15:14:02 GMT 51.519150 -3.832670 10,000 308 348 -64
2020-09-14 15:13:58 GMT 51.514427 -3.823242 10,000 314 349 -64
2020-09-14 15:13:52 GMT 51.508423 -3.812790 10,000 315 349 64
2020-09-14 15:13:48 GMT 51.504700 -3.806686 10,000 315 349 0
2020-09-14 15:13:44 GMT 51.499100 -3.797558 10,000 315 349 0
2020-09-14 15:13:40 GMT 51.495014 -3.790817 10,000 315 348 64
2020-09-14 15:13:37 GMT 51.491711 -3.785477 10,000 315 348 0
2020-09-14 15:13:33 GMT 51.487793 -3.779074 10,000 315 348 64
2020-09-14 15:13:29 GMT 51.482960 -3.771133 10,000 315 348 0
2020-09-14 15:13:26 GMT 51.478271 -3.763485 10,000 315 348 0
2020-09-14 15:13:22 GMT 51.474346 -3.757019 10,000 315 349 -64
2020-09-14 15:13:19 GMT 51.471321 -3.752136 10,000 315 349 -64
2020-09-14 15:13:16 GMT 51.467789 -3.746338 10,000 315 352 0
2020-09-14 15:13:13 GMT 51.460938 -3.735123 10,000 315 349 0
2020-09-14 15:13:10 GMT 51.460938 -3.735123 10,000 315 348 -64
2020-09-14 15:13:07 GMT 51.457169 -3.728893 10,000 315 348 0
2020-09-14 15:13:03 GMT 51.453072 -3.722229 10,000 315 348 64
2020-09-14 15:12:59 GMT 51.448696 -3.715134 10,000 315 348 64
2020-09-14 15:12:56 GMT 51.445724 -3.710335 10,000 315 349 64
2020-09-14 15:12:53 GMT 51.437477 -3.697052 10,000 315 349 0
2020-09-14 15:12:49 GMT 51.437477 -3.697052 10,000 315 349 0
2020-09-14 15:12:46 GMT 51.434170 -3.691635 10,000 315 353 -64
2020-09-14 15:12:42 GMT 51.429516 -3.684158 10,000 315 350 0
2020-09-14 15:12:39 GMT 51.422516 -3.672774 10,000 315 350 64
2020-09-14 15:12:36 GMT 51.422516 -3.672774 10,000 315 350 64
2020-09-14 15:12:32 GMT 51.417133 -3.664017 10,000 315 351 0
2020-09-14 15:12:28 GMT 51.405487 -3.644937 10,000 315 352 0
2020-09-14 15:12:22 GMT 51.405487 -3.644937 10,000 315 352 0
2020-09-14 15:12:19 GMT 51.403309 -3.641434 10,000 315 352 -64
2020-09-14 15:12:16 GMT 51.393173 -3.624894 10,000 315 352 -64
2020-09-14 15:12:11 GMT 51.393173 -3.624894 10,000 315 352 0
2020-09-14 15:12:08 GMT 51.390270 -3.620148 10,000 315 352 64
2020-09-14 15:12:05 GMT 51.382870 -3.608093 10,000 315 353 0
2020-09-14 15:12:01 GMT 51.382870 -3.608093 10,000 315 352 -64
2020-09-14 15:11:58 GMT 51.378914 -3.601761 10,000 315 353 0
2020-09-14 15:11:54 GMT 51.374630 -3.594818 10,000 315 352 0
2020-09-14 15:11:51 GMT 51.371231 -3.589325 10,000 315 353 0
2020-09-14 15:11:48 GMT 51.367832 -3.583832 10,000 315 353 -64
2020-09-14 15:11:43 GMT 51.362640 -3.575382 10,000 315 353 0
2020-09-14 15:11:40 GMT 51.358337 -3.568344 10,000 315 352 0
2020-09-14 15:11:37 GMT 51.352158 -3.558234 10,000 315 353 0
2020-09-14 15:11:34 GMT 51.352158 -3.558234 10,000 315 353 0
2020-09-14 15:11:31 GMT 51.348267 -3.551924 10,000 315 353 0
2020-09-14 15:11:28 GMT 51.344742 -3.546209 10,000 315 354 0
2020-09-14 15:11:25 GMT 51.340927 -3.540039 10,000 315 353 0
2020-09-14 15:11:21 GMT 51.336548 -3.532995 10,000 315 353 -64
2020-09-14 15:11:18 GMT 51.333115 -3.527576 10,000 316 353 -64
2020-09-14 15:11:14 GMT 51.322960 -3.511505 10,000 316 353 64
2020-09-14 15:11:10 GMT 51.322960 -3.511505 10,000 316 353 0
2020-09-14 15:11:07 GMT 51.320724 -3.507919 10,000 315 353 -64
2020-09-14 15:11:04 GMT 51.317184 -3.502350 10,000 315 353 64
2020-09-14 15:11:01 GMT 51.313156 -3.495805 10,000 314 353 0
2020-09-14 15:10:58 GMT 51.310226 -3.490832 10,000 313 353 64
2020-09-14 15:10:54 GMT 51.305920 -3.483276 10,000 312 352 64
2020-09-14 15:10:51 GMT 51.299774 -3.470612 10,000 302 353 -64
2020-09-14 15:10:48 GMT 51.299774 -3.470612 10,000 302 353 0
2020-09-14 15:10:45 GMT 51.296997 -3.463588 10,000 296 351 0
2020-09-14 15:10:41 GMT 51.293304 -3.452301 10,000 297 352 0
2020-09-14 15:10:38 GMT 51.292000 -3.447495 10,000 284 351 64
2020-09-14 15:10:35 GMT 51.288300 -3.427809 10,000 284 351 64
2020-09-14 15:10:31 GMT 51.288300 -3.427809 10,000 282 350 64
2020-09-14 15:10:28 GMT 51.287613 -3.421722 10,000 278 350 -64
2020-09-14 15:10:23 GMT 51.286785 -3.403549 10,000 267 348 -64
2020-09-14 15:10:20 GMT 51.286785 -3.403549 10,000 268 349 0
2020-09-14 15:10:17 GMT 51.286972 -3.395615 10,000 264 348 0
2020-09-14 15:10:13 GMT 51.287857 -3.384247 10,000 257 347 64
2020-09-14 15:10:10 GMT 51.289253 -3.374252 10,000 257 347 64
2020-09-14 15:10:07 GMT 51.290222 -3.368868 10,000 254 346 64
2020-09-14 15:10:03 GMT 51.291862 -3.361511 10,000 249 346 64
2020-09-14 15:10:00 GMT 51.294189 -3.353119 10,000 245 345 128
2020-09-14 15:09:57 GMT 51.296448 -3.346228 10,000 240 345 -64
2020-09-14 15:09:52 GMT 51.300751 -3.335037 10,000 236 344 -64
2020-09-14 15:09:49 GMT 51.305649 -3.323735 10,000 235 344 0
2020-09-14 15:09:43 GMT 51.311550 -3.310471 10,000 235 344 -64
2020-09-14 15:09:40 GMT 51.311550 -3.310471 10,000 235 344 0
2020-09-14 15:09:37 GMT 51.315079 -3.302505 10,000 235 344 64
2020-09-14 15:09:33 GMT 51.318100 -3.295750 10,000 235 344 64
2020-09-14 15:09:30 GMT 51.320801 -3.289663 10,000 235 344 0
2020-09-14 15:09:27 GMT 51.323563 -3.283463 10,000 235 344 -64
2020-09-14 15:09:24 GMT 51.325836 -3.278305 10,000 235 343 0
2020-09-14 15:09:21 GMT 51.329041 -3.271105 10,000 235 344 0
2020-09-14 15:09:18 GMT 51.331696 -3.265166 10,000 235 344 -64
2020-09-14 15:09:15 GMT 51.338470 -3.249800 10,000 235 343 0
2020-09-14 15:09:11 GMT 51.338470 -3.249800 10,000 235 343 0
2020-09-14 15:09:08 GMT 51.340897 -3.244307 10,000 235 343 -64
2020-09-14 15:09:05 GMT 51.343048 -3.239408 10,000 235 343 0
2020-09-14 15:09:02 GMT 51.346848 -3.230723 10,000 235 343 0
2020-09-14 15:08:59 GMT 51.349121 -3.225555 10,000 235 343 64
2020-09-14 15:08:56 GMT 51.351517 -3.220108 10,000 235 343 64
2020-09-14 15:08:53 GMT 51.354568 -3.213196 10,000 236 342 -64
2020-09-14 15:08:50 GMT 51.357174 -3.207245 10,000 236 341 -64
2020-09-14 15:08:47 GMT 51.362457 -3.195091 10,000 236 342 64
2020-09-14 15:08:41 GMT 51.365250 -3.188782 10,000 236 342 0
2020-09-14 15:08:38 GMT 51.368179 -3.182027 10,000 236 341 0
2020-09-14 15:08:35 GMT 51.373234 -3.170471 10,000 236 341 64
2020-09-14 15:08:29 GMT 51.376511 -3.163023 10,000 236 341 64
2020-09-14 15:08:26 GMT 51.380035 -3.154858 10,000 236 341 64
2020-09-14 15:08:23 GMT 51.381775 -3.150923 10,000 225 336 -64
2020-09-14 15:08:20 GMT 51.384293 -3.145059 10,000 236 341 -64
2020-09-14 15:08:17 GMT 51.390106 -3.131697 10,000 236 340 -64
2020-09-14 15:08:10 GMT 51.393902 -3.122940 10,000 236 341 0
2020-09-14 15:08:07 GMT 51.396744 -3.116379 10,000 236 340 64
2020-09-14 15:08:02 GMT 51.403564 -3.100446 10,000 236 340 0
2020-09-14 15:07:58 GMT 51.404068 -3.099258 10,000 236 339 0
2020-09-14 15:07:55 GMT 51.406567 -3.093414 10,000 236 339 -64
2020-09-14 15:07:52 GMT 51.410156 -3.084931 10,000 236 338 0
2020-09-14 15:07:49 GMT 51.412849 -3.078690 10,000 235 338 64
2020-09-14 15:07:46 GMT 51.415085 -3.073578 10,000 235 338 0
2020-09-14 15:07:43 GMT 51.418259 -3.066447 10,000 234 337 64
2020-09-14 15:07:39 GMT 51.421188 -3.060286 10,000 231 337 64
2020-09-14 15:07:36 GMT 51.424534 -3.053589 10,000 228 336 0
2020-09-14 15:07:32 GMT 51.433136 -3.039798 10,000 219 336 0
2020-09-14 15:07:28 GMT 51.433136 -3.039798 10,000 219 336 0
2020-09-14 15:07:25 GMT 51.436386 -3.035567 10,000 217 336 0
2020-09-14 15:07:21 GMT 51.440598 -3.030965 10,000 211 335 0
2020-09-14 15:07:18 GMT 51.449627 -3.023224 10,000 206 335 0
2020-09-14 15:07:15 GMT 51.449627 -3.023224 10,000 203 335 0
2020-09-14 15:07:11 GMT 51.454979 -3.019867 10,000 142 340 0
2020-09-14 15:07:08 GMT 51.460373 -3.017380 10,000 190 335 -64
2020-09-14 15:07:05 GMT 51.464767 -3.015896 10,000 189 335 0
2020-09-14 15:07:02 GMT 51.469986 -3.014708 10,000 185 336 0
2020-09-14 15:06:59 GMT 51.474609 -3.014188 10,000 173 336 -128
2020-09-14 15:06:56 GMT 51.478722 -3.014221 10,000 176 336 0
2020-09-14 15:06:53 GMT 51.489616 -3.016129 10,000 171 336 -64
2020-09-14 15:06:49 GMT 51.489616 -3.016129 10,000 168 336 -128
2020-09-14 15:06:46 GMT 51.494568 -3.017974 10,000 165 337 -64
2020-09-14 15:06:43 GMT 51.499111 -3.020248 10,000 162 337 -64
2020-09-14 15:06:40 GMT 51.506332 -3.025175 10,000 155 337 0
2020-09-14 15:06:34 GMT 51.511959 -3.030090 10,000 148 338 64
2020-09-14 15:06:30 GMT 51.517872 -3.036575 10,000 144 339 64
2020-09-14 15:06:27 GMT 51.521027 -3.040689 10,000 137 340 -64
2020-09-14 15:06:23 GMT 51.525833 -3.048038 10,000 120 342 64
2020-09-14 15:06:19 GMT 51.529602 -3.054962 10,000 115 344 64
2020-09-14 15:06:15 GMT 51.532974 -3.062142 10,000 121 343 -64
2020-09-14 15:06:12 GMT 51.537689 -3.074984 10,000 119 343 64
2020-09-14 15:06:09 GMT 51.537689 -3.074984 10,000 115 344 128
2020-09-14 15:06:06 GMT 51.539795 -3.082036 10,000 113 344 0
2020-09-14 15:06:03 GMT 51.541801 -3.090134 10,000 111 344 64
2020-09-14 15:06:00 GMT 51.543663 -3.098679 10,000 107 344 -64
2020-09-14 15:05:57 GMT 51.544685 -3.103790 10,000 107 344 0
2020-09-14 15:05:54 GMT 51.545929 -3.110319 10,000 107 344 64
2020-09-14 15:05:51 GMT 51.547527 -3.118744 10,000 107 343 0
2020-09-14 15:05:48 GMT 51.548782 -3.125229 10,000 107 343 0
2020-09-14 15:05:44 GMT 51.550690 -3.135147 10,000 106 342 0
2020-09-14 15:05:38 GMT 51.553757 -3.151369 10,000 106 342 -192
2020-09-14 15:05:35 GMT 51.556686 -3.166661 10,025 106 343 -320
2020-09-14 15:05:29 GMT 51.557602 -3.171560 10,050 106 346 -704
2020-09-14 15:05:26 GMT 51.559296 -3.180394 10,100 107 346 -896
2020-09-14 15:05:23 GMT 51.560143 -3.184891 10,100 107 347 -1024
2020-09-14 15:05:20 GMT 51.563213 -3.200684 10,175 107 348 -1344
2020-09-14 15:05:17 GMT 51.563213 -3.200684 10,300 107 349 -1600
2020-09-14 15:05:14 GMT 51.566254 -3.216396 10,425 107 351 -1472
2020-09-14 15:05:11 GMT 51.567451 -3.222733 10,475 106 352 -1536
2020-09-14 15:05:04 GMT 51.569916 -3.235696 10,600 106 353 -1536
2020-09-14 15:05:01 GMT 51.571243 -3.242600 10,650 106 354 -1536
2020-09-14 15:04:58 GMT 51.572937 -3.251805 10,750 106 354 -1600
2020-09-14 15:04:55 GMT 51.575134 -3.263385 11,050 106 357 -1600
2020-09-14 15:04:48 GMT 51.576855 -3.272552 11,100 106 357 -1600
2020-09-14 15:04:45 GMT 51.578949 -3.283844 11,100 106 358 -1728
2020-09-14 15:04:42 GMT 51.579647 -3.287582 11,150 106 358 -1792
2020-09-14 15:04:39 GMT 51.583324 -3.306961 11,325 106 359 -1856
2020-09-14 15:04:36 GMT 51.583324 -3.306961 11,375 106 359 -1856
2020-09-14 15:04:33 GMT 51.584335 -3.312378 11,425 106 359 -1792
2020-09-14 15:04:30 GMT 51.585663 -3.319430 11,525 106 359 -1856
2020-09-14 15:04:27 GMT 51.587128 -3.327299 11,600 106 359 -1856
2020-09-14 15:04:24 GMT 51.588722 -3.336029 11,675 106 359 -1920
2020-09-14 15:04:21 GMT 51.590240 -3.344372 13,400 105 371 -2048
2020-09-14 15:04:18 GMT 51.591431 -3.350756 11,950 106 363 -1536
2020-09-14 15:04:15 GMT 51.592819 -3.358383 12,050 106 361 -1792
2020-09-14 15:04:12 GMT 51.594131 -3.365825 12,050 106 361 -1856
2020-09-14 15:04:09 GMT 51.595520 -3.373489 12,175 106 361 -1728
2020-09-14 15:04:06 GMT 51.598873 -3.391953 12,675 106 367 -1664
2020-09-14 15:04:03 GMT 51.598873 -3.391953 12,350 106 363 -1600
2020-09-14 15:04:00 GMT 51.599854 -3.397374 12,425 106 363 -1536
2020-09-14 15:03:57 GMT 51.601181 -3.404426 12,475 106 364 -1472
2020-09-14 15:03:53 GMT 51.603062 -3.414764 12,600 106 365 -1600
2020-09-14 15:03:50 GMT 51.604786 -3.424377 12,650 106 366 -1600
2020-09-14 15:03:47 GMT 51.606182 -3.432083 12,925 105 370 -1664
2020-09-14 15:03:44 GMT 51.607300 -3.438339 12,800 106 368 -1664
2020-09-14 15:03:41 GMT 51.608643 -3.445847 12,900 105 369 -1664
2020-09-14 15:03:38 GMT 51.610184 -3.454590 12,975 105 371 0
2020-09-14 15:03:35 GMT 51.612167 -3.465815 13,100 105 370 -1792
2020-09-14 15:03:31 GMT 51.613220 -3.472051 13,175 105 371 -1856
2020-09-14 15:03:28 GMT 51.614777 -3.481107 13,350 105 371 -1920
2020-09-14 15:03:24 GMT 51.616516 -3.491211 13,475 105 371 -2048
2020-09-14 15:03:21 GMT 51.617821 -3.499069 13,500 105 371 -2048
2020-09-14 15:03:17 GMT 51.619450 -3.508530 13,600 105 371 -1984
2020-09-14 15:03:13 GMT 51.621822 -3.522415 13,800 105 371 -1984
2020-09-14 15:03:10 GMT 51.622787 -3.527948 13,875 106 371 -1984
2020-09-14 15:03:07 GMT 51.626293 -3.546448 14,050 108 371 -1856
2020-09-14 15:03:03 GMT 51.626293 -3.546448 14,075 109 371 -1792
2020-09-14 15:03:00 GMT 51.629971 -3.562393 14,250 114 371 -1792
2020-09-14 15:02:57 GMT 51.629971 -3.562393 14,450 118 370 -1728
2020-09-14 15:02:54 GMT 51.632576 -3.571548 14,375 115 370 -1792
2020-09-14 15:02:51 GMT 51.634533 -3.577881 14,525 118 370 -1728
2020-09-14 15:02:48 GMT 51.639698 -3.591843 14,750 125 369 -1856
2020-09-14 15:02:45 GMT 51.643753 -3.601066 14,700 129 368 -1920
2020-09-14 15:02:42 GMT 51.643753 -3.601066 14,850 129 368 -1920
2020-09-14 15:02:39 GMT 51.646683 -3.606930 14,850 129 368 -1920
2020-09-14 15:02:36 GMT 51.649612 -3.612498 14,900 131 369 -1984
2020-09-14 15:02:32 GMT 51.657623 -3.625565 15,075 136 367 -1984
2020-09-14 15:02:29 GMT 51.657623 -3.625565 15,150 138 366 -1984
2020-09-14 15:02:26 GMT 51.662090 -3.631821 15,300 141 367 -1984
2020-09-14 15:02:23 GMT 51.665497 -3.636178 15,350 142 366 -1984
2020-09-14 15:02:20 GMT 51.668934 -3.640137 15,450 145 365 -2048
2020-09-14 15:02:17 GMT 51.673542 -3.645020 15,525 147 365 -1984
2020-09-14 15:02:14 GMT 51.677399 -3.648797 15,650 150 364 -2048
2020-09-14 15:02:11 GMT 51.683075 -3.653696 15,750 154 363 -2112
2020-09-14 15:02:07 GMT 51.688999 -3.658142 15,900 157 362 -2112
2020-09-14 15:02:04 GMT 51.694016 -3.661342 16,000 160 362 -2112
2020-09-14 15:02:01 GMT 51.699287 -3.664322 16,125 161 362 -2048
2020-09-14 15:01:58 GMT 51.708504 -3.668365 16,425 170 360 -2048
2020-09-14 15:01:55 GMT 51.708504 -3.668365 16,325 169 361 -2048
2020-09-14 15:01:51 GMT 51.714478 -3.670324 16,450 170 360 -2048
2020-09-14 15:01:48 GMT 51.718689 -3.671364 16,475 176 360 -1920
2020-09-14 15:01:45 GMT 51.723492 -3.672256 16,725 174 360 -1984
2020-09-14 15:01:42 GMT 51.728519 -3.672867 16,650 176 360 -1856
2020-09-14 15:01:39 GMT 51.733177 -3.673172 16,875 182 361 -1728
2020-09-14 15:01:35 GMT 51.741669 -3.672922 16,925 182 361 -1728
2020-09-14 15:01:32 GMT 51.746117 -3.672409 20,175 243 383 -1472
2020-09-14 15:01:29 GMT 51.750092 -3.671735 19,025 188 362 -1536
2020-09-14 15:01:26 GMT 51.754822 -3.670578 17,300 194 365 -1408
2020-09-14 15:01:20 GMT 51.765564 -3.666984 17,325 196 366 -1280
2020-09-14 15:01:17 GMT 51.768906 -3.665499 17,400 197 366 -1280
2020-09-14 15:01:14 GMT 51.774353 -3.662753 17,425 200 368 -1344
2020-09-14 15:01:10 GMT 51.782288 -3.657913 17,550 204 370 -1600
2020-09-14 15:01:06 GMT 51.787643 -3.654099 17,600 205 371 -1728
2020-09-14 15:01:03 GMT 51.793041 -3.649673 17,925 224 377 -2112
2020-09-14 15:01:00 GMT 51.797287 -3.645828 17,850 212 372 -2048
2020-09-14 15:00:56 GMT 51.802597 -3.640483 18,675 226 376 -2112
2020-09-14 15:00:53 GMT 51.810471 -3.631501 18,100 217 374 -1984
2020-09-14 15:00:50 GMT 51.810471 -3.631501 18,200 221 375 -1984
2020-09-14 15:00:47 GMT 51.815277 -3.625191 18,225 221 375 -1984
2020-09-14 15:00:44 GMT 51.819157 -3.619690 18,350 224 377 -2112
2020-09-14 15:00:41 GMT 51.822601 -3.614426 18,425 225 377 -2112
2020-09-14 15:00:38 GMT 51.826328 -3.608170 18,575 228 377 -1984
2020-09-14 15:00:35 GMT 51.829960 -3.601608 18,650 230 378 -1792
2020-09-14 15:00:32 GMT 51.833450 -3.594818 18,750 232 378 -1728
2020-09-14 15:00:29 GMT 51.836609 -3.588001 18,875 236 380 -1664
2020-09-14 15:00:25 GMT 51.841362 -3.576813 18,950 238 382 -1536
2020-09-14 15:00:22 GMT 51.843456 -3.571396 19,025 240 382 -1536
2020-09-14 15:00:19 GMT 51.846130 -3.563876 19,150 244 384 -1472
2020-09-14 15:00:16 GMT 51.848534 -3.556442 19,175 244 384 -1472
2020-09-14 15:00:13 GMT 51.851048 -3.547821 19,675 263 394 -1152
2020-09-14 15:00:10 GMT 51.852905 -3.540864 19,325 250 387 -1088
2020-09-14 15:00:07 GMT 51.855331 -3.530620 19,350 250 388 -1088
2020-09-14 15:00:04 GMT 51.856567 -3.524756 19,950 271 392 -1152
2020-09-14 15:00:01 GMT 51.858074 -3.516693 19,450 255 391 -1024
2020-09-14 14:59:58 GMT 51.859520 -3.507996 19,500 257 391 -1088
2020-09-14 14:59:55 GMT 51.860687 -3.499591 19,600 262 393 -1152
2020-09-14 14:59:52 GMT 51.861893 -3.488998 19,625 262 393 -1152
2020-09-14 14:59:49 GMT 51.862473 -3.482666 19,675 263 394 -1152
2020-09-14 14:59:46 GMT 51.863251 -3.471012 19,750 266 394 -1216
2020-09-14 14:59:43 GMT 51.863476 -3.465881 19,825 267 393 -1280
2020-09-14 14:59:40 GMT 51.863754 -3.453369 19,875 272 398 -1152
2020-09-14 14:59:37 GMT 51.863804 -3.447800 19,950 272 391 -960
2020-09-14 14:59:34 GMT 51.863754 -3.437729 20,000 272 390 -448
2020-09-14 14:59:31 GMT 51.863567 -3.425903 20,000 272 390 -320
2020-09-14 14:59:28 GMT 51.863476 -3.419647 20,000 272 390 64
2020-09-14 14:59:25 GMT 51.863342 -3.411626 20,000 272 391 64
2020-09-14 14:59:22 GMT 51.863197 -3.402481 20,000 272 391 64
2020-09-14 14:59:19 GMT 51.863010 -3.392105 20,000 272 391 64
2020-09-14 14:59:16 GMT 51.862869 -3.385391 20,000 272 392 64
2020-09-14 14:59:13 GMT 51.862701 -3.377331 20,000 272 392 64
2020-09-14 14:59:10 GMT 51.862499 -3.367996 20,000 272 392 0
2020-09-14 14:59:07 GMT 51.862335 -3.359070 20,000 272 394 -192
2020-09-14 14:59:04 GMT 51.861984 -3.341599 20,000 272 393 -128
2020-09-14 14:59:01 GMT 51.861984 -3.341599 20,025 272 396 -512
2020-09-14 14:58:58 GMT 51.861786 -3.332940 20,025 272 394 -256
2020-09-14 14:58:55 GMT 51.861614 -3.322754 20,025 272 395 -448
2020-09-14 14:58:52 GMT 51.861465 -3.315199 20,475 272 398 -1600
2020-09-14 14:58:49 GMT 51.861237 -3.298051 20,125 272 397 -1088
2020-09-14 14:58:43 GMT 51.861008 -3.280607 20,425 272 399 -2240
2020-09-14 14:58:40 GMT 51.860916 -3.271179 20,300 272 398 -1856
2020-09-14 14:58:37 GMT 51.860916 -3.271179 20,425 272 398 -2240
2020-09-14 14:58:34 GMT 51.860775 -3.261185 20,500 272 399 -2112
2020-09-14 14:58:31 GMT 51.860683 -3.252182 20,850 273 401 -1920
2020-09-14 14:58:28 GMT 51.860550 -3.242526 20,725 272 399 -2112
2020-09-14 14:58:25 GMT 51.860451 -3.234100 20,825 272 399 -2048
2020-09-14 14:58:22 GMT 51.860310 -3.227081 20,850 272 400 -1920
2020-09-14 14:58:19 GMT 51.860172 -3.217926 21,025 273 401 -1920
2020-09-14 14:58:16 GMT 51.859818 -3.206004 21,100 274 401 -1920
2020-09-14 14:58:13 GMT 51.859520 -3.198318 21,175 274 401 -1856
2020-09-14 14:58:10 GMT 51.858959 -3.187714 21,250 276 403 -1728
2020-09-14 14:58:07 GMT 51.858582 -3.182101 21,425 280 407 -1664
2020-09-14 14:58:04 GMT 51.856541 -3.161392 22,875 291 427 -1792
2020-09-14 14:58:01 GMT 51.856541 -3.161392 21,575 283 409 -1472
2020-09-14 14:57:58 GMT 51.855148 -3.151220 21,625 284 410 -1472
2020-09-14 14:57:55 GMT 51.853958 -3.143649 21,750 287 413 -1792
2020-09-14 14:57:52 GMT 51.852863 -3.137512 21,775 288 414 -1792
2020-09-14 14:57:49 GMT 51.851093 -3.128586 21,850 289 416 -1792
2020-09-14 14:57:46 GMT 51.846439 -3.107834 22,000 291 418 -1664
2020-09-14 14:57:43 GMT 51.846439 -3.107834 22,075 291 419 -1792
2020-09-14 14:57:40 GMT 51.844345 -3.099035 22,125 291 419 -1920
2020-09-14 14:57:37 GMT 51.842606 -3.091686 22,175 291 419 -2048
2020-09-14 14:57:34 GMT 51.840958 -3.084709 22,550 291 420 -2112
2020-09-14 14:57:31 GMT 51.837936 -3.071718 22,425 291 420 -2112
2020-09-14 14:57:28 GMT 51.835964 -3.063278 22,575 291 421 -2368
2020-09-14 14:57:25 GMT 51.834801 -3.058395 22,700 291 421 -2304
2020-09-14 14:57:22 GMT 51.832535 -3.048780 23,025 291 422 -1856
2020-09-14 14:57:19 GMT 51.830475 -3.040095 22,825 291 421 -2368
2020-09-14 14:57:16 GMT 51.828327 -3.031082 22,975 291 421 -2112
2020-09-14 14:57:13 GMT 51.824139 -3.013153 23,150 291 423 -1792
2020-09-14 14:57:10 GMT 51.824139 -3.013153 23,375 291 424 -1728
2020-09-14 14:57:07 GMT 51.819763 -2.994614 23,325 291 424 -1728
2020-09-14 14:57:04 GMT 51.819763 -2.994614 23,775 291 424 -1792
2020-09-14 14:57:01 GMT 51.817703 -2.985832 23,500 291 425 -1664
2020-09-14 14:56:58 GMT 51.815918 -2.978111 23,525 291 425 -1728
2020-09-14 14:56:55 GMT 51.813385 -2.967300 23,600 291 426 -1728
2020-09-14 14:56:52 GMT 51.811337 -2.958755 23,700 291 429 -1984
2020-09-14 14:56:49 GMT 51.809429 -2.950592 23,850 291 428 -1920
2020-09-14 14:56:46 GMT 51.807240 -2.941360 23,875 291 428 -1984
2020-09-14 14:56:43 GMT 51.804703 -2.930529 23,975 291 429 -1984
2020-09-14 14:56:40 GMT 51.803284 -2.924423 24,125 291 430 -1984
2020-09-14 14:56:37 GMT 51.798843 -2.905661 24,225 291 430 -1984
2020-09-14 14:56:34 GMT 51.798843 -2.905661 24,325 291 430 -1984
2020-09-14 14:56:31 GMT 51.796783 -2.897050 24,500 292 430 -1984
2020-09-14 14:56:28 GMT 51.794437 -2.887268 24,500 292 430 -1920
2020-09-14 14:56:25 GMT 51.792389 -2.878647 24,975 292 429 -1856
2020-09-14 14:56:22 GMT 51.790283 -2.869881 24,675 292 430 -1856
2020-09-14 14:56:19 GMT 51.787857 -2.860008 24,750 292 430 -1728
2020-09-14 14:56:16 GMT 51.786060 -2.852478 25,075 292 429 -1856
2020-09-14 14:56:13 GMT 51.781590 -2.834091 24,975 292 428 -1792
2020-09-14 14:56:10 GMT 51.779541 -2.825546 25,100 292 427 -1664
2020-09-14 14:56:07 GMT 51.779541 -2.825546 25,150 292 426 -1344
2020-09-14 14:56:04 GMT 51.777447 -2.817001 25,175 292 426 -1152
2020-09-14 14:56:01 GMT 51.775631 -2.809601 25,250 292 426 -448
2020-09-14 14:55:58 GMT 51.772476 -2.796689 25,250 292 428 128
2020-09-14 14:55:55 GMT 51.770874 -2.790008 25,250 292 428 128
2020-09-14 14:55:52 GMT 51.765793 -2.769297 25,275 292 431 -128
2020-09-14 14:55:49 GMT 51.763962 -2.761800 25,250 292 431 64
2020-09-14 14:55:46 GMT 51.762085 -2.754154 25,250 292 434 -64
2020-09-14 14:55:43 GMT 51.759796 -2.744726 25,250 292 435 -128
2020-09-14 14:55:40 GMT 51.759796 -2.744726 25,250 292 436 64
2020-09-14 14:55:37 GMT 51.757988 -2.737122 25,275 292 437 -64
2020-09-14 14:55:34 GMT 51.755310 -2.726242 25,275 292 439 -576
2020-09-14 14:55:31 GMT 51.753067 -2.716815 25,275 292 437 -64
2020-09-14 14:55:28 GMT 51.751373 -2.709986 25,275 292 437 -64
2020-09-14 14:55:25 GMT 51.748539 -2.698212 25,275 292 437 -64
2020-09-14 14:55:22 GMT 51.746521 -2.689869 25,275 292 439 0
2020-09-14 14:55:19 GMT 51.743881 -2.679062 25,275 292 439 64
2020-09-14 14:55:16 GMT 51.742081 -2.671534 25,250 292 439 0
2020-09-14 14:55:13 GMT 51.739834 -2.662354 25,250 292 439 -128
2020-09-14 14:55:10 GMT 51.737877 -2.654266 25,250 292 439 64
2020-09-14 14:55:07 GMT 51.735317 -2.643738 25,250 292 439 0
2020-09-14 14:55:04 GMT 51.733429 -2.635976 25,250 292 439 64
2020-09-14 14:55:01 GMT 51.730988 -2.625885 25,275 292 439 0
2020-09-14 14:54:58 GMT 51.726379 -2.606812 25,275 292 439 -192
2020-09-14 14:54:55 GMT 51.726379 -2.606812 25,275 292 439 -384
2020-09-14 14:54:52 GMT 51.724777 -2.600197 25,300 292 439 -256
2020-09-14 14:54:49 GMT 51.722469 -2.590637 25,300 292 439 -512
2020-09-14 14:54:46 GMT 51.719650 -2.579189 25,350 292 439 -640
2020-09-14 14:54:43 GMT 51.718140 -2.573028 25,350 292 439 -448
2020-09-14 14:54:40 GMT 51.712921 -2.551500 25,375 292 438 192
2020-09-14 14:54:37 GMT 51.712921 -2.551500 25,375 292 436 1472
2020-09-14 14:54:34 GMT 51.710972 -2.543488 25,350 292 436 1536
2020-09-14 14:54:31 GMT 51.709110 -2.535782 25,225 292 433 1344
2020-09-14 14:54:28 GMT 51.706650 -2.525742 25,200 292 435 1344
2020-09-14 14:54:24 GMT 51.703384 -2.512283 25,100 292 435 1408
2020-09-14 14:54:21 GMT 51.701706 -2.505264 25,025 292 433 1280
2020-09-14 14:54:18 GMT 51.699417 -2.495901 25,000 292 433 1344
2020-09-14 14:54:15 GMT 51.697189 -2.486725 24,925 292 432 1280
2020-09-14 14:54:12 GMT 51.695423 -2.479630 24,900 292 432 1344
2020-09-14 14:54:09 GMT 51.692551 -2.467841 24,825 292 431 1344
2020-09-14 14:54:06 GMT 51.691048 -2.461624 24,775 292 431 1536
2020-09-14 14:54:03 GMT 51.688477 -2.451139 24,525 292 431 1792
2020-09-14 14:54:00 GMT 51.686691 -2.443938 24,500 292 431 1920
2020-09-14 14:53:57 GMT 51.684017 -2.433090 24,400 292 432 1792
2020-09-14 14:53:54 GMT 51.681736 -2.423630 23,550 292 426 1472
2020-09-14 14:53:51 GMT 51.679409 -2.414169 24,325 292 432 1728
2020-09-14 14:53:48 GMT 51.677219 -2.405319 24,175 292 432 1536
2020-09-14 14:53:45 GMT 51.675110 -2.396578 24,100 292 431 1472
2020-09-14 14:53:42 GMT 51.670715 -2.378763 23,850 292 430 1472
2020-09-14 14:53:39 GMT 51.670715 -2.378763 23,650 292 430 1472
2020-09-14 14:53:36 GMT 51.668980 -2.371750 23,925 292 431 1472
2020-09-14 14:53:33 GMT 51.666512 -2.361526 23,875 292 430 1408
2020-09-14 14:53:30 GMT 51.664536 -2.353450 23,800 292 430 1344
2020-09-14 14:53:27 GMT 51.661392 -2.340775 23,675 292 429 1536
2020-09-14 14:53:24 GMT 51.659317 -2.332294 23,600 292 429 1408
2020-09-14 14:53:21 GMT 51.657482 -2.324753 23,550 292 428 1472
2020-09-14 14:53:18 GMT 51.656021 -2.318858 23,475 292 428 1472
2020-09-14 14:53:15 GMT 51.653778 -2.309727 23,425 292 426 1472
2020-09-14 14:53:12 GMT 51.651627 -2.301042 23,375 292 426 1408
2020-09-14 14:53:09 GMT 51.649017 -2.290501 23,250 292 425 1472
2020-09-14 14:53:06 GMT 51.646404 -2.279892 23,175 292 425 1408
2020-09-14 14:53:03 GMT 51.644760 -2.273131 23,075 292 425 1472
2020-09-14 14:53:00 GMT 51.642307 -2.263260 23,050 292 425 1408
2020-09-14 14:52:57 GMT 51.640823 -2.257171 22,925 292 423 1408
2020-09-14 14:52:54 GMT 51.638535 -2.247892 22,875 292 422 1472
2020-09-14 14:52:51 GMT 51.636154 -2.238390 22,850 292 422 1280
2020-09-14 14:52:48 GMT 51.631832 -2.220917 22,725 292 421 1408
2020-09-14 14:52:45 GMT 51.631832 -2.220917 22,475 292 419 1536
2020-09-14 14:52:42 GMT 51.629608 -2.211741 22,625 292 421 1472
2020-09-14 14:52:39 GMT 51.627548 -2.203522 22,550 292 420 1600
2020-09-14 14:52:36 GMT 51.625168 -2.193851 22,475 292 419 1408
2020-09-14 14:52:33 GMT 51.622894 -2.184753 22,425 292 419 1472
2020-09-14 14:52:30 GMT 51.620567 -2.175217 22,400 292 419 1408
2020-09-14 14:52:27 GMT 51.616150 -2.157403 22,250 292 418 1344
2020-09-14 14:52:24 GMT 51.614655 -2.151413 22,150 292 417 1408
2020-09-14 14:52:21 GMT 51.614655 -2.151413 22,075 292 416 1472
2020-09-14 14:52:18 GMT 51.610291 -2.133797 22,025 292 416 1472
2020-09-14 14:52:15 GMT 51.610291 -2.133797 21,900 292 415 1536
2020-09-14 14:52:12 GMT 51.608047 -2.124667 21,900 292 415 1536
2020-09-14 14:52:09 GMT 51.605896 -2.115982 21,850 292 415 1472
2020-09-14 14:52:06 GMT 51.603390 -2.105865 21,675 292 414 1472
2020-09-14 14:52:03 GMT 51.599945 -2.091980 21,650 292 413 1472
2020-09-14 14:52:00 GMT 51.597897 -2.083817 21,350 292 411 1536
2020-09-14 14:51:54 GMT 51.595367 -2.073521 21,450 292 412 1472
2020-09-14 14:51:51 GMT 51.592960 -2.063904 21,350 292 411 1536
2020-09-14 14:51:48 GMT 51.591110 -2.056522 21,300 292 410 1536
2020-09-14 14:51:45 GMT 51.589371 -2.049544 21,250 292 410 1536
2020-09-14 14:51:42 GMT 51.586670 -2.038706 21,125 292 409 1536
2020-09-14 14:51:39 GMT 51.582550 -2.022227 21,050 292 409 1600
2020-09-14 14:51:36 GMT 51.582550 -2.022227 21,000 292 409 1600
2020-09-14 14:51:33 GMT 51.580765 -2.015100 20,675 292 408 1472
2020-09-14 14:51:30 GMT 51.578110 -2.004411 20,825 292 407 1408
2020-09-14 14:51:27 GMT 51.576435 -1.997681 20,775 292 404 1280
2020-09-14 14:51:24 GMT 51.574036 -1.988006 20,700 292 406 1408
2020-09-14 14:51:21 GMT 51.572197 -1.980591 20,650 292 406 1344
2020-09-14 14:51:18 GMT 51.570335 -1.973190 19,675 292 399 1600
2020-09-14 14:51:15 GMT 51.568405 -1.965439 20,500 292 404 1280
2020-09-14 14:51:12 GMT 51.565659 -1.954379 20,425 292 403 1408
2020-09-14 14:51:09 GMT 51.563770 -1.946945 20,175 292 402 1408
2020-09-14 14:51:06 GMT 51.559525 -1.929882 20,175 292 399 1600
2020-09-14 14:51:03 GMT 51.559525 -1.929882 20,175 292 402 1600
2020-09-14 14:51:00 GMT 51.557831 -1.923201 20,100 292 402 1600
2020-09-14 14:50:57 GMT 51.555302 -1.913071 19,450 292 398 1536
2020-09-14 14:50:54 GMT 51.553528 -1.906054 20,000 292 401 1600
2020-09-14 14:50:51 GMT 51.549294 -1.889191 19,875 292 400 1536
2020-09-14 14:50:48 GMT 51.549294 -1.889191 19,825 292 399 1600
2020-09-14 14:50:45 GMT 51.547211 -1.880815 19,725 292 399 1536
2020-09-14 14:50:42 GMT 51.544872 -1.871414 19,650 292 399 1536
2020-09-14 14:50:39 GMT 51.543228 -1.864929 19,600 292 398 1472
2020-09-14 14:50:36 GMT 51.541286 -1.857147 19,550 292 398 1536
2020-09-14 14:50:33 GMT 51.536633 -1.838608 19,400 292 397 1472
2020-09-14 14:50:27 GMT 51.534851 -1.831525 19,325 292 397 1472
2020-09-14 14:50:24 GMT 51.532288 -1.821281 19,200 292 396 1600
2020-09-14 14:50:21 GMT 51.530487 -1.814270 19,100 292 395 1664
2020-09-14 14:50:18 GMT 51.528763 -1.807251 18,825 292 395 1600
2020-09-14 14:50:15 GMT 51.527042 -1.800461 18,925 292 395 1600
2020-09-14 14:50:12 GMT 51.524689 -1.791217 18,900 293 394 1664
2020-09-14 14:50:09 GMT 51.522343 -1.781769 18,825 293 394 1664
2020-09-14 14:50:06 GMT 51.520618 -1.775131 18,750 293 394 1600
2020-09-14 14:50:03 GMT 51.518280 -1.765830 18,625 292 392 1536
2020-09-14 14:50:00 GMT 51.516357 -1.758258 18,600 292 392 1472
2020-09-14 14:49:57 GMT 51.514297 -1.749944 18,525 292 392 1408
2020-09-14 14:49:54 GMT 51.512695 -1.743486 18,450 292 391 1536
2020-09-14 14:49:51 GMT 51.510452 -1.734652 18,375 292 388 1408
2020-09-14 14:49:48 GMT 51.508144 -1.725464 18,325 292 390 1472
2020-09-14 14:49:45 GMT 51.505920 -1.716688 18,175 292 388 1472
2020-09-14 14:49:42 GMT 51.504139 -1.709671 17,400 292 381 1600
2020-09-14 14:49:39 GMT 51.501999 -1.701050 18,100 292 388 1344
2020-09-14 14:49:36 GMT 51.499924 -1.692860 18,050 292 387 1472
2020-09-14 14:49:33 GMT 51.498600 -1.687546 17,950 293 386 1472
2020-09-14 14:49:30 GMT 51.496216 -1.678087 17,875 292 384 1536
2020-09-14 14:49:27 GMT 51.492550 -1.663513 17,750 292 384 1536
2020-09-14 14:49:24 GMT 51.492550 -1.663513 16,475 292 381 1600
2020-09-14 14:49:21 GMT 51.490356 -1.654927 17,550 293 383 1664
2020-09-14 14:49:18 GMT 51.488297 -1.646762 17,525 293 383 1536
2020-09-14 14:49:15 GMT 51.486557 -1.639932 17,450 293 383 1600
2020-09-14 14:49:12 GMT 51.484493 -1.631775 17,425 292 381 1600
2020-09-14 14:49:09 GMT 51.480240 -1.614916 17,275 293 380 1536
2020-09-14 14:49:06 GMT 51.478226 -1.606973 17,175 293 379 1664
2020-09-14 14:49:03 GMT 51.476486 -1.600189 17,050 293 379 1792
2020-09-14 14:49:00 GMT 51.474625 -1.592789 16,925 293 378 1600
2020-09-14 14:48:54 GMT 51.470352 -1.575944 16,725 293 377 1536
2020-09-14 14:48:51 GMT 51.470352 -1.575944 16,675 293 377 1600
2020-09-14 14:48:48 GMT 51.467922 -1.566391 16,700 293 377 1600
2020-09-14 14:48:45 GMT 51.466553 -1.561172 16,625 293 377 1600
2020-09-14 14:48:42 GMT 51.464432 -1.552811 16,625 293 376 1600
2020-09-14 14:48:39 GMT 51.462479 -1.545286 16,525 293 376 1664
2020-09-14 14:48:36 GMT 51.458656 -1.530380 16,275 293 374 1792
2020-09-14 14:48:33 GMT 51.456665 -1.522497 16,275 293 374 1728
2020-09-14 14:48:30 GMT 51.456665 -1.522497 16,200 293 374 1792
2020-09-14 14:48:27 GMT 51.454330 -1.513515 15,975 293 372 1792
2020-09-14 14:48:24 GMT 51.453049 -1.508393 16,050 293 373 1792
2020-09-14 14:48:21 GMT 51.450138 -1.497116 15,975 293 372 1792
2020-09-14 14:48:18 GMT 51.448883 -1.492310 15,675 293 372 1728
2020-09-14 14:48:15 GMT 51.446594 -1.483303 15,825 293 371 1728
2020-09-14 14:48:12 GMT 51.444580 -1.475583 15,700 293 369 1792
2020-09-14 14:48:09 GMT 51.442924 -1.469116 15,600 293 369 2176
2020-09-14 14:48:06 GMT 51.440876 -1.461258 15,525 293 369 2048
2020-09-14 14:48:03 GMT 51.438492 -1.451903 15,425 293 369 2112
2020-09-14 14:48:00 GMT 51.436451 -1.444092 15,300 293 369 2368
2020-09-14 14:47:57 GMT 51.434692 -1.437205 15,250 293 369 2368
2020-09-14 14:47:54 GMT 51.431213 -1.423695 15,025 293 369 1536
2020-09-14 14:47:51 GMT 51.431213 -1.423695 14,975 293 368 1280
2020-09-14 14:47:48 GMT 51.428970 -1.415009 14,925 293 368 1344
2020-09-14 14:47:45 GMT 51.427048 -1.407512 14,900 293 368 1088
2020-09-14 14:47:42 GMT 51.424999 -1.399689 14,825 293 369 1152
2020-09-14 14:47:39 GMT 51.423569 -1.394002 14,775 292 367 2048
2020-09-14 14:47:36 GMT 51.419266 -1.377225 14,650 293 369 1536
2020-09-14 14:47:33 GMT 51.419266 -1.377225 14,625 293 367 2048
2020-09-14 14:47:30 GMT 51.417503 -1.370544 14,550 293 367 2048
2020-09-14 14:47:27 GMT 51.415829 -1.364059 14,450 293 367 2112
2020-09-14 14:47:24 GMT 51.413734 -1.356049 14,225 290 366 1920
2020-09-14 14:47:21 GMT 51.409607 -1.339144 14,200 291 366 2112
2020-09-14 14:47:18 GMT 51.409607 -1.339144 14,125 290 366 1984
2020-09-14 14:47:15 GMT 51.407776 -1.330533 14,025 288 365 1856
2020-09-14 14:47:12 GMT 51.406845 -1.325760 13,950 287 365 1792
2020-09-14 14:47:09 GMT 51.405350 -1.317543 13,875 285 364 1792
2020-09-14 14:47:06 GMT 51.404053 -1.309662 13,750 283 363 1920
2020-09-14 14:47:03 GMT 51.402935 -1.301651 13,525 278 360 1856
2020-09-14 14:47:00 GMT 51.402008 -1.294382 13,600 281 362 1856
2020-09-14 14:46:57 GMT 51.401138 -1.286514 13,475 278 361 1856
2020-09-14 14:46:54 GMT 51.399811 -1.267288 13,350 275 360 1856
2020-09-14 14:46:51 GMT 51.399811 -1.267288 13,275 272 359 1920
2020-09-14 14:46:45 GMT 51.399490 -1.252594 13,050 271 358 2112
2020-09-14 14:46:42 GMT 51.399395 -1.244736 13,000 271 358 2176
2020-09-14 14:46:39 GMT 51.399353 -1.238263 12,825 272 358 2176
2020-09-14 14:46:36 GMT 51.399170 -1.227871 12,775 272 358 2176
2020-09-14 14:46:33 GMT 51.399117 -1.223679 12,250 273 357 2176
2020-09-14 14:46:30 GMT 51.398884 -1.214294 12,650 272 358 2176
2020-09-14 14:46:27 GMT 51.398746 -1.206741 12,500 273 357 2176
2020-09-14 14:46:24 GMT 51.398529 -1.198475 12,375 273 357 2112
2020-09-14 14:46:21 GMT 51.398300 -1.190903 12,225 273 357 2048
2020-09-14 14:46:18 GMT 51.398071 -1.182738 12,150 273 356 2048
2020-09-14 14:46:15 GMT 51.397888 -1.174646 12,000 273 356 2048
2020-09-14 14:46:12 GMT 51.397659 -1.166407 11,950 273 355 1920
2020-09-14 14:46:09 GMT 51.397488 -1.158295 11,875 273 355 1984
2020-09-14 14:46:06 GMT 51.397339 -1.151709 11,825 272 354 1920
2020-09-14 14:46:03 GMT 51.396976 -1.135788 11,625 272 354 1920
2020-09-14 14:46:00 GMT 51.396976 -1.135788 11,500 272 348 1152
2020-09-14 14:45:57 GMT 51.396790 -1.126022 11,500 272 353 1792
2020-09-14 14:45:54 GMT 51.396698 -1.119195 11,375 272 352 1664
2020-09-14 14:45:51 GMT 51.396511 -1.109695 11,325 272 351 1664
2020-09-14 14:45:48 GMT 51.396416 -1.103210 11,225 272 349 1280
2020-09-14 14:45:45 GMT 51.396278 -1.095352 11,125 272 348 1088
2020-09-14 14:45:42 GMT 51.396137 -1.087799 11,100 272 345 960
2020-09-14 14:45:39 GMT 51.396011 -1.079629 11,025 272 343 960
2020-09-14 14:45:36 GMT 51.395905 -1.073074 11,000 272 342 1024
2020-09-14 14:45:33 GMT 51.395782 -1.066639 10,975 272 340 896
2020-09-14 14:45:30 GMT 51.395626 -1.058197 10,875 272 335 768
2020-09-14 14:45:27 GMT 51.395485 -1.050949 10,875 272 336 832
2020-09-14 14:45:24 GMT 51.395161 -1.034317 9,175 268 288 1792
2020-09-14 14:45:21 GMT 51.395020 -1.028366 10,775 273 329 768
2020-09-14 14:45:18 GMT 51.395020 -1.028366 10,750 273 328 768
2020-09-14 14:45:15 GMT 51.394821 -1.020467 10,700 273 323 896
2020-09-14 14:45:12 GMT 51.394695 -1.014404 10,675 273 323 896
2020-09-14 14:45:09 GMT 51.394501 -1.005991 10,650 273 321 896
2020-09-14 14:45:06 GMT 51.394367 -0.999832 10,625 273 320 832
2020-09-14 14:45:03 GMT 51.394230 -0.992737 10,575 272 317 768
2020-09-14 14:45:00 GMT 51.393902 -0.977936 10,500 272 314 832
2020-09-14 14:44:57 GMT 51.393902 -0.977936 10,425 272 310 768
2020-09-14 14:44:54 GMT 51.393764 -0.970001 10,425 272 309 832
2020-09-14 14:44:51 GMT 51.393677 -0.965832 10,400 272 307 832
2020-09-14 14:44:48 GMT 51.393631 -0.958557 10,375 271 305 768
2020-09-14 14:44:45 GMT 51.393578 -0.952454 10,325 270 301 640
2020-09-14 14:44:42 GMT 51.393669 -0.940933 10,275 269 297 832
2020-09-14 14:44:39 GMT 51.393723 -0.936362 10,175 268 295 1792
2020-09-14 14:44:36 GMT 51.393902 -0.929642 10,150 268 294 1792
2020-09-14 14:44:33 GMT 51.394043 -0.924225 10,100 268 294 1856
2020-09-14 14:44:30 GMT 51.394318 -0.914166 9,975 268 293 1792
2020-09-14 14:44:27 GMT 51.394554 -0.904770 9,875 268 293 1728
2020-09-14 14:44:24 GMT 51.394554 -0.904770 9,800 268 292 1728
2020-09-14 14:44:21 GMT 51.394695 -0.898438 9,700 268 292 1664
2020-09-14 14:44:18 GMT 51.394867 -0.891674 9,650 268 291 1664
2020-09-14 14:44:15 GMT 51.395020 -0.885391 9,600 268 291 1600
2020-09-14 14:44:12 GMT 51.395206 -0.879288 9,475 268 290 1600
2020-09-14 14:44:09 GMT 51.395348 -0.873566 9,450 268 290 1664
2020-09-14 14:44:06 GMT 51.395718 -0.860214 9,250 268 288 1856
2020-09-14 14:44:03 GMT 51.395718 -0.860214 9,175 268 288 1856
2020-09-14 14:44:00 GMT 51.395905 -0.853653 9,150 268 288 1792
2020-09-14 14:43:57 GMT 51.396057 -0.848323 9,050 268 288 1792
2020-09-14 14:43:54 GMT 51.396240 -0.842384 8,900 268 287 1664
2020-09-14 14:43:51 GMT 51.396416 -0.835648 8,875 268 287 1728
2020-09-14 14:43:48 GMT 51.396606 -0.828948 8,875 268 286 1728
2020-09-14 14:43:45 GMT 51.396790 -0.822601 8,650 268 285 1792
2020-09-14 14:43:42 GMT 51.396973 -0.816106 8,550 268 285 1792
2020-09-14 14:43:39 GMT 51.397202 -0.807495 8,375 268 284 1920
2020-09-14 14:43:35 GMT 51.397346 -0.801849 8,350 268 284 1984
2020-09-14 14:43:32 GMT 51.397488 -0.795212 8,275 268 284 1984
2020-09-14 14:43:26 GMT 51.397797 -0.783073 8,100 268 283 1856
2020-09-14 14:43:23 GMT 51.397999 -0.774231 8,050 268 283 1792
2020-09-14 14:43:20 GMT 51.398094 -0.769806 7,925 268 283 1728
2020-09-14 14:43:17 GMT 51.398254 -0.762436 7,775 268 282 1856
2020-09-14 14:43:14 GMT 51.398373 -0.757370 7,325 268 281 1856
2020-09-14 14:43:11 GMT 51.398464 -0.751801 7,625 268 281 1920
2020-09-14 14:43:08 GMT 51.398666 -0.742097 7,525 269 281 1920
2020-09-14 14:43:05 GMT 51.398884 -0.731964 7,450 269 280 1920
2020-09-14 14:43:02 GMT 51.399025 -0.725403 7,300 269 279 1792
2020-09-14 14:42:59 GMT 51.399025 -0.725403 7,175 269 279 1728
2020-09-14 14:42:56 GMT 51.399124 -0.719827 7,200 269 279 1728
2020-09-14 14:42:53 GMT 51.399258 -0.714111 7,050 269 277 2048
2020-09-14 14:42:50 GMT 51.399349 -0.708313 7,000 269 277 2048
2020-09-14 14:42:47 GMT 51.399490 -0.700455 6,950 269 277 1984
2020-09-14 14:42:44 GMT 51.399673 -0.693104 6,875 268 277 1920
2020-09-14 14:42:41 GMT 51.399910 -0.683060 6,700 268 275 1856
2020-09-14 14:42:38 GMT 51.400131 -0.675065 6,575 268 274 1984
2020-09-14 14:42:35 GMT 51.400131 -0.675065 6,500 268 274 2112
2020-09-14 14:42:32 GMT 51.400467 -0.664291 6,350 268 274 2240
2020-09-14 14:42:29 GMT 51.400467 -0.664291 6,250 267 274 2368
2020-09-14 14:42:26 GMT 51.400681 -0.658957 6,150 267 274 2048
2020-09-14 14:42:23 GMT 51.400841 -0.653458 6,075 267 274 1344
2020-09-14 14:42:20 GMT 51.401093 -0.647154 6,050 267 273 960
2020-09-14 14:42:17 GMT 51.401321 -0.640176 6,000 267 273 640
2020-09-14 14:42:14 GMT 51.401596 -0.632976 5,975 267 270 512
2020-09-14 14:42:11 GMT 51.401772 -0.628815 5,950 267 270 512
2020-09-14 14:42:08 GMT 51.402237 -0.616455 5,875 267 267 1088
2020-09-14 14:42:05 GMT 51.402237 -0.616455 5,825 267 265 1216
2020-09-14 14:42:02 GMT 51.402374 -0.611725 5,800 267 265 1280
2020-09-14 14:41:59 GMT 51.402649 -0.604471 5,750 267 265 1344
2020-09-14 14:41:56 GMT 51.402832 -0.599794 5,650 267 264 1664
2020-09-14 14:41:53 GMT 51.403309 -0.585861 5,550 267 264 1792
2020-09-14 14:41:50 GMT 51.403446 -0.582657 5,400 268 264 2624
2020-09-14 14:41:44 GMT 51.403770 -0.573883 5,250 268 263 2368
2020-09-14 14:41:38 GMT 51.404114 -0.561787 5,025 268 264 2496
2020-09-14 14:41:35 GMT 51.404205 -0.558447 4,950 268 264 2688
2020-09-14 14:41:32 GMT 51.404377 -0.552292 4,850 268 265 3136
2020-09-14 14:41:29 GMT 51.404572 -0.546496 4,675 267 267 2880
2020-09-14 14:41:26 GMT 51.404751 -0.540543 4,475 267 267 2496
2020-09-14 14:41:23 GMT 51.405029 -0.533653 4,300 267 268 2432
2020-09-14 14:41:20 GMT 51.405216 -0.528412 4,200 267 268 2432
2020-09-14 14:41:17 GMT 51.405441 -0.523558 4,000 267 268 2432
2020-09-14 14:41:14 GMT 51.405682 -0.517578 3,925 267 268 2304
2020-09-14 14:41:11 GMT 51.406006 -0.509186 3,850 267 268 2496
2020-09-14 14:41:08 GMT 51.406174 -0.505223 3,625 267 269 2368
2020-09-14 14:41:05 GMT 51.406425 -0.500107 3,625 267 269 2624
2020-09-14 14:41:02 GMT 51.406704 -0.493240 3,425 267 269 2432
2020-09-14 14:40:59 GMT 51.406952 -0.486442 3,300 267 269 2304
2020-09-14 14:40:56 GMT 51.407181 -0.481246 3,225 267 269 2240
2020-09-14 14:40:53 GMT 51.407410 -0.474713 2,500 267 268 1984
2020-09-14 14:40:50 GMT 51.407639 -0.469814 3,000 266 267 2304
2020-09-14 14:40:47 GMT 51.408005 -0.462094 2,950 266 267 2176
2020-09-14 14:40:44 GMT 51.408234 -0.456972 2,800 266 265 1856
2020-09-14 14:40:41 GMT 51.408428 -0.452805 2,725 266 265 1792
2020-09-14 14:40:38 GMT 51.408798 -0.446320 2,600 263 262 1280
2020-09-14 14:40:35 GMT 51.409218 -0.440903 2,550 263 261 1280
2020-09-14 14:40:32 GMT 51.409927 -0.434257 2,425 227 236 1088
2020-09-14 14:40:29 GMT 51.410801 -0.428772 2,375 249 251 1024
2020-09-14 14:40:26 GMT 51.412033 -0.423493 2,375 247 250 1344
2020-09-14 14:40:22 GMT 51.414291 -0.416336 2,275 237 243 1344
2020-09-14 14:40:18 GMT 51.416759 -0.410461 2,200 232 240 1152
2020-09-14 14:40:15 GMT 51.418530 -0.407104 2,150 228 238 960
2020-09-14 14:40:12 GMT 51.421043 -0.402908 2,075 223 233 1024
2020-09-14 14:40:09 GMT 51.424026 -0.398774 2,025 218 229 1152
2020-09-14 14:40:06 GMT 51.425930 -0.396423 1,975 216 227 1216
2020-09-14 14:40:02 GMT 51.429428 -0.392687 1,925 212 225 1088
2020-09-14 14:39:59 GMT 51.431610 -0.390701 1,850 206 220 1344
2020-09-14 14:39:56 GMT 51.434647 -0.388604 1,850 204 219 832
2020-09-14 14:39:53 GMT 51.438782 -0.386658 1,750 191 213 1344
2020-09-14 14:39:50 GMT 51.441101 -0.386155 1,625 167 204 896
2020-09-14 14:39:47 GMT 51.445808 -0.386124 1,625 170 205 704
2020-09-14 14:39:44 GMT 51.445808 -0.386124 1,600 167 204 1216
2020-09-14 14:39:41 GMT 51.448700 -0.386823 1,500 160 201 896
2020-09-14 14:39:38 GMT 51.451813 -0.388336 1,525 158 199 1024
2020-09-14 14:39:35 GMT 51.454010 -0.389866 1,525 146 194 512
2020-09-14 14:39:31 GMT 51.457306 -0.393207 1,375 124 186 1600
2020-09-14 14:39:28 GMT 51.459217 -0.395966 1,400 131 188 1216
2020-09-14 14:39:25 GMT 51.460831 -0.398774 1,375 126 187 1152
2020-09-14 14:39:22 GMT 51.462708 -0.403302 1,325 121 186 960
2020-09-14 14:39:18 GMT 51.463989 -0.407756 1,150 103 186 2176
2020-09-14 14:39:15 GMT 51.464630 -0.411468 1,100 101 186 1984
2020-09-14 14:39:11 GMT 51.465130 -0.420914 950 90 186 1920
2020-09-14 14:39:08 GMT 51.465130 -0.420914 750 89 184 2368
2020-09-14 14:39:05 GMT 51.465080 -0.426559 725 89 183 2816
2020-09-14 14:39:02 GMT 51.465088 -0.430323 650 89 183 2560
2020-09-14 14:38:59 GMT 51.465034 -0.433731 475 89 181 2624
2020-09-14 14:38:56 GMT 51.465034 -0.436783 400 89 180 2752
2020-09-14 14:38:53 GMT 51.464951 -0.446208 175 89 179 1984
2020-09-14 14:38:50 GMT 51.464951 -0.446208 100 89 179 1920
2020-09-14 14:38:47 GMT 51.464951 -0.450143 25 89 178 576
2020-09-14 14:38:41 GMT 51.464893 -0.457001 -75 89 170 -64
2020-09-14 14:38:30 GMT 51.464813 -0.469072 -50 89 132 -128
2020-09-14 14:38:20 GMT 51.464802 -0.478314 0 89 93 64
2020-09-14 14:38:09 GMT 51.464790 -0.483788 0 90 42
2020-09-14 14:37:58 GMT 51.464779 -0.485897 0 90 13
2020-09-14 14:37:53 GMT 51.464779 -0.486393 0 90 12
2020-09-14 14:37:41 GMT 51.464848 -0.487314 0 120 12
2020-09-14 14:37:29 GMT 51.465317 -0.487871 0 177 11
2020-09-14 14:37:22 GMT 51.465660 -0.487852 0 196 9
2020-09-14 14:37:07 GMT 51.466038 -0.487648 0 180 0
2020-09-14 14:37:03 GMT 51.466072 -0.487630 0 180 0
2020-09-14 14:36:27 GMT 51.466072 -0.487633 0 180 0
2020-09-14 14:36:22 GMT 51.466072 -0.487630 0 180 0
2020-09-14 14:36:07 GMT 51.466072 -0.487633 0 180 0
2020-09-14 14:36:02 GMT 51.466072 -0.487630 0 185 0
2020-09-14 14:35:47 GMT 51.466072 -0.487633 0 180 0
2020-09-14 14:35:37 GMT 51.466072 -0.487648 0 180 0
2020-09-14 14:35:32 GMT 51.466072 -0.487630 0 185 0
2020-09-14 14:35:13 GMT 51.466072 -0.487633 0 180 0
2020-09-14 14:35:07 GMT 51.466072 -0.487630 0 185 0
2020-09-14 14:34:47 GMT 51.466072 -0.487633 0 180 0
2020-09-14 14:34:32 GMT 51.466072 -0.487630 0 180 0
2020-09-14 14:34:17 GMT 51.466061 -0.487630 0 180 0
2020-09-14 14:33:37 GMT 51.466072 -0.487648 0 180 0
2020-09-14 14:33:32 GMT 51.466072 -0.487633 0 180 0
2020-09-14 14:33:17 GMT 51.466072 -0.487648 0 185 0
2020-09-14 14:32:52 GMT 51.466072 -0.487648 0 180 0
2020-09-14 14:32:47 GMT 51.466072 -0.487648 0 180 0
2020-09-14 14:32:30 GMT 51.466072 -0.487633 0 180 0
2020-09-14 14:32:19 GMT 51.466084 -0.487630 0 180 2
2020-09-14 14:32:12 GMT 51.466164 -0.487595 0 185 4
2020-09-14 14:32:09 GMT 51.466198 -0.487576 0 180 5
2020-09-14 14:32:01 GMT 51.466370 -0.487481 0 185 7
2020-09-14 14:31:57 GMT 51.466496 -0.487463 0 180 8
2020-09-14 14:31:51 GMT 51.466724 -0.487463 0 177 10
2020-09-14 14:31:39 GMT 51.467251 -0.487407 0 196 10
2020-09-14 14:31:30 GMT 51.467411 -0.486832 0 270 12
2020-09-14 14:31:06 GMT 51.467422 -0.484697 0 270 11
2020-09-14 14:30:59 GMT 51.467422 -0.484257 0 272 10
2020-09-14 14:30:51 GMT 51.467480 -0.483665 0 227 9
2020-09-14 14:30:42 GMT 51.467770 -0.483532 0 177 8
2020-09-14 14:30:38 GMT 51.467880 -0.483547 0 180 7
2020-09-14 14:30:29 GMT 51.468121 -0.483551 0 180 5
2020-09-14 14:30:19 GMT 51.468304 -0.483547 0 180 3
2020-09-14 14:30:05 GMT 51.468395 -0.483547 0 180 0
2020-09-14 14:30:00 GMT 51.468399 -0.483551 0 180 0
2020-09-14 14:29:50 GMT 51.468395 -0.483547 0 180 0
2020-09-14 14:29:20 GMT 51.468399 -0.483551 0 180 0
2020-09-14 14:29:06 GMT 51.468395 -0.483547 0 180 0
2020-09-14 14:29:00 GMT 51.468399 -0.483551 0 180 0
2020-09-14 14:28:55 GMT 51.468395 -0.483547 0 180 0
2020-09-14 14:27:29 GMT 51.468399 -0.483551 0 180 0
2020-09-14 14:27:25 GMT 51.468395 -0.483547 0 180 0
2020-09-14 14:27:15 GMT 51.468418 -0.483547 0 180 0
2020-09-14 14:27:05 GMT 51.468498 -0.483547 0 180 4
2020-09-14 14:26:56 GMT 51.468655 -0.483551 0 180 6
2020-09-14 14:26:36 GMT 51.469307 -0.483551 0 180 10
2020-09-14 14:26:30 GMT 51.469585 -0.483551 0 180 10
2020-09-14 14:26:23 GMT 51.469898 -0.483551 0 180 9
2020-09-14 14:26:13 GMT 51.470318 -0.483565 0 180 10
2020-09-14 14:21:37 GMT 51.471947 -0.483570 0 0
2020-09-14 14:21:21 GMT 51.471851 -0.483491 0 3
2020-09-14 14:21:03 GMT 51.471764 -0.483265 0 3
2020-09-14 14:20:53 GMT 51.471764 -0.483093 0 2
2020-09-14 14:20:46 GMT 51.471798 -0.483017 0 3
2020-09-14 14:20:30 GMT 51.471817 -0.482730 0 3
2020-09-14 14:20:20 GMT 51.471821 -0.482502 0 3
2020-09-14 14:20:12 GMT 51.471821 -0.482349 0 3

Making use of Plane Finder data

You are free to use the raw flight data, aircraft information and images provided in this report for your own purposes provided the data is correctly attributed to Plane Finder. We ask that you please credit Plane Finder and link to planefinder.net in close proximity to the content.

Optionally one of the following logos (no smaller then 150x24px) can be used and must link to planefinder.net

Embedding the Plane Finder map

You are welcome to embed the Plane Finder playback map on your website to offer visitors a more interactive experience. We suggest using the following HTML code:

<iframe src="//planefinder.net/data/report/BA113-G-VIIC-7700-squawk-2020-09-14/map" width="800" height="600" seamless="seamless"></iframe>

Where our data comes from

Plane Finder has a global network of data feeds and antenna radars that receive data broadcast directly from aircraft. The primary technologies used are ADS-B and MLAT. We also show feeds from the FAA and a FLARM glider feed.

Click here to find out more about the Plane Finder network.

How we collect our data